<?xml version="1.0" encoding="UTF-8" standalone="no" ?>
<gpx xmlns="http://www.topografix.com/GPX/1/1" xmlns:xsi="http://www.w3.org/2001/XMLSchema-instance" xsi:schemaLocation="http://www.topografix.com/GPX/1/1 http://www.topografix.com/GPX/1/1/gpx.xsd" version="1.1" creator="VisuGPX - https://www.visugpx.com">
  <metadata>
    <name>Lyon - Mont Verdun</name>
    <desc><![CDATA[Lyon - Mont Verdun le 15/08/2015 avec Alex]]></desc>
  </metadata>
  <trk>
    <name><![CDATA[ACTIVE LOG150308]]></name>
    <trkseg>
      <trkpt lat="45.77294" lon="4.82677">
        <ele>136.9</ele>
        <time>2015-08-15T13:03:07Z</time>
      </trkpt>
      <trkpt lat="45.77294" lon="4.82665">
        <ele>153.808</ele>
        <time>2015-08-15T13:08:54Z</time>
      </trkpt>
      <trkpt lat="45.77297" lon="4.82665">
        <ele>152.366</ele>
        <time>2015-08-15T13:09:07Z</time>
      </trkpt>
      <trkpt lat="45.77302" lon="4.82664">
        <ele>152.117</ele>
        <time>2015-08-15T13:09:11Z</time>
      </trkpt>
      <trkpt lat="45.77301" lon="4.82664">
        <ele>151.838</ele>
        <time>2015-08-15T13:09:15Z</time>
      </trkpt>
      <trkpt lat="45.77305" lon="4.82664">
        <ele>151.22</ele>
        <time>2015-08-15T13:09:24Z</time>
      </trkpt>
      <trkpt lat="45.7731" lon="4.8266">
        <ele>151.523</ele>
        <time>2015-08-15T13:09:37Z</time>
      </trkpt>
      <trkpt lat="45.77249" lon="4.82564">
        <ele>187.362</ele>
        <time>2015-08-15T13:09:52Z</time>
      </trkpt>
      <trkpt lat="45.77246" lon="4.8256">
        <ele>192.501</ele>
        <time>2015-08-15T13:09:54Z</time>
      </trkpt>
      <trkpt lat="45.77229" lon="4.82566">
        <ele>198.629</ele>
        <time>2015-08-15T13:10:05Z</time>
      </trkpt>
      <trkpt lat="45.77218" lon="4.82588">
        <ele>205.198</ele>
        <time>2015-08-15T13:10:17Z</time>
      </trkpt>
      <trkpt lat="45.77218" lon="4.82587">
        <ele>205.818</ele>
        <time>2015-08-15T13:10:21Z</time>
      </trkpt>
      <trkpt lat="45.77192" lon="4.82586">
        <ele>205.866</ele>
        <time>2015-08-15T13:10:35Z</time>
      </trkpt>
      <trkpt lat="45.77191" lon="4.82582">
        <ele>206.704</ele>
        <time>2015-08-15T13:10:37Z</time>
      </trkpt>
      <trkpt lat="45.77174" lon="4.82571">
        <ele>208.857</ele>
        <time>2015-08-15T13:10:50Z</time>
      </trkpt>
      <trkpt lat="45.77153" lon="4.82568">
        <ele>208.325</ele>
        <time>2015-08-15T13:11:03Z</time>
      </trkpt>
      <trkpt lat="45.77154" lon="4.82568">
        <ele>207.683</ele>
        <time>2015-08-15T13:11:12Z</time>
      </trkpt>
      <trkpt lat="45.77131" lon="4.82571">
        <ele>206.764</ele>
        <time>2015-08-15T13:11:20Z</time>
      </trkpt>
      <trkpt lat="45.77059" lon="4.82573">
        <ele>203.666</ele>
        <time>2015-08-15T13:11:31Z</time>
      </trkpt>
      <trkpt lat="45.7704" lon="4.8261">
        <ele>202.436</ele>
        <time>2015-08-15T13:11:36Z</time>
      </trkpt>
      <trkpt lat="45.77038" lon="4.82645">
        <ele>201.244</ele>
        <time>2015-08-15T13:11:39Z</time>
      </trkpt>
      <trkpt lat="45.77013" lon="4.82657">
        <ele>200.25</ele>
        <time>2015-08-15T13:11:45Z</time>
      </trkpt>
      <trkpt lat="45.77" lon="4.82656">
        <ele>199.919</ele>
        <time>2015-08-15T13:11:47Z</time>
      </trkpt>
      <trkpt lat="45.76986" lon="4.82631">
        <ele>198.057</ele>
        <time>2015-08-15T13:11:51Z</time>
      </trkpt>
      <trkpt lat="45.76985" lon="4.82574">
        <ele>196.731</ele>
        <time>2015-08-15T13:11:59Z</time>
      </trkpt>
      <trkpt lat="45.76987" lon="4.82546">
        <ele>195.124</ele>
        <time>2015-08-15T13:12:03Z</time>
      </trkpt>
      <trkpt lat="45.76976" lon="4.82466">
        <ele>191.987</ele>
        <time>2015-08-15T13:12:17Z</time>
      </trkpt>
      <trkpt lat="45.76975" lon="4.82451">
        <ele>191.244</ele>
        <time>2015-08-15T13:12:20Z</time>
      </trkpt>
      <trkpt lat="45.76971" lon="4.82437">
        <ele>195.601</ele>
        <time>2015-08-15T13:12:24Z</time>
      </trkpt>
      <trkpt lat="45.76947" lon="4.8241">
        <ele>200.471</ele>
        <time>2015-08-15T13:12:33Z</time>
      </trkpt>
      <trkpt lat="45.76932" lon="4.82401">
        <ele>201.999</ele>
        <time>2015-08-15T13:12:39Z</time>
      </trkpt>
      <trkpt lat="45.76912" lon="4.82395">
        <ele>198.583</ele>
        <time>2015-08-15T13:12:44Z</time>
      </trkpt>
      <trkpt lat="45.76895" lon="4.82389">
        <ele>195.915</ele>
        <time>2015-08-15T13:12:47Z</time>
      </trkpt>
      <trkpt lat="45.76884" lon="4.82408">
        <ele>192.258</ele>
        <time>2015-08-15T13:12:54Z</time>
      </trkpt>
      <trkpt lat="45.76915" lon="4.82426">
        <ele>188.929</ele>
        <time>2015-08-15T13:12:59Z</time>
      </trkpt>
      <trkpt lat="45.76922" lon="4.82454">
        <ele>185.632</ele>
        <time>2015-08-15T13:13:04Z</time>
      </trkpt>
      <trkpt lat="45.76921" lon="4.82464">
        <ele>182.838</ele>
        <time>2015-08-15T13:13:08Z</time>
      </trkpt>
      <trkpt lat="45.76922" lon="4.82457">
        <ele>181.373</ele>
        <time>2015-08-15T13:13:10Z</time>
      </trkpt>
      <trkpt lat="45.76907" lon="4.82454">
        <ele>177.832</ele>
        <time>2015-08-15T13:13:19Z</time>
      </trkpt>
      <trkpt lat="45.76906" lon="4.82468">
        <ele>174.613</ele>
        <time>2015-08-15T13:13:22Z</time>
      </trkpt>
      <trkpt lat="45.76892" lon="4.8247">
        <ele>171.877</ele>
        <time>2015-08-15T13:13:28Z</time>
      </trkpt>
      <trkpt lat="45.76876" lon="4.82471">
        <ele>170.813</ele>
        <time>2015-08-15T13:13:31Z</time>
      </trkpt>
      <trkpt lat="45.76858" lon="4.8247">
        <ele>169.168</ele>
        <time>2015-08-15T13:13:34Z</time>
      </trkpt>
      <trkpt lat="45.76846" lon="4.82469">
        <ele>167.168</ele>
        <time>2015-08-15T13:13:38Z</time>
      </trkpt>
      <trkpt lat="45.76845" lon="4.82465">
        <ele>166.78</ele>
        <time>2015-08-15T13:13:40Z</time>
      </trkpt>
      <trkpt lat="45.76837" lon="4.8245">
        <ele>166.648</ele>
        <time>2015-08-15T13:13:45Z</time>
      </trkpt>
      <trkpt lat="45.76834" lon="4.82375">
        <ele>168.489</ele>
        <time>2015-08-15T13:14:00Z</time>
      </trkpt>
      <trkpt lat="45.76825" lon="4.82238">
        <ele>171.342</ele>
        <time>2015-08-15T13:14:23Z</time>
      </trkpt>
      <trkpt lat="45.76798" lon="4.82107">
        <ele>172.616</ele>
        <time>2015-08-15T13:14:44Z</time>
      </trkpt>
      <trkpt lat="45.76797" lon="4.821">
        <ele>172.59</ele>
        <time>2015-08-15T13:14:45Z</time>
      </trkpt>
      <trkpt lat="45.76787" lon="4.82071">
        <ele>171.612</ele>
        <time>2015-08-15T13:14:50Z</time>
      </trkpt>
      <trkpt lat="45.76785" lon="4.82043">
        <ele>173.204</ele>
        <time>2015-08-15T13:14:55Z</time>
      </trkpt>
      <trkpt lat="45.76777" lon="4.82039">
        <ele>174.329</ele>
        <time>2015-08-15T13:14:59Z</time>
      </trkpt>
      <trkpt lat="45.76765" lon="4.82044">
        <ele>176.205</ele>
        <time>2015-08-15T13:15:03Z</time>
      </trkpt>
      <trkpt lat="45.76705" lon="4.82068">
        <ele>177.3</ele>
        <time>2015-08-15T13:15:21Z</time>
      </trkpt>
      <trkpt lat="45.76696" lon="4.82072">
        <ele>175.907</ele>
        <time>2015-08-15T13:15:23Z</time>
      </trkpt>
      <trkpt lat="45.76686" lon="4.82057">
        <ele>175.742</ele>
        <time>2015-08-15T13:15:27Z</time>
      </trkpt>
      <trkpt lat="45.76681" lon="4.8203">
        <ele>176.385</ele>
        <time>2015-08-15T13:15:31Z</time>
      </trkpt>
      <trkpt lat="45.76678" lon="4.82017">
        <ele>176.232</ele>
        <time>2015-08-15T13:15:33Z</time>
      </trkpt>
      <trkpt lat="45.76659" lon="4.81949">
        <ele>175.036</ele>
        <time>2015-08-15T13:15:46Z</time>
      </trkpt>
      <trkpt lat="45.76656" lon="4.81932">
        <ele>175.03</ele>
        <time>2015-08-15T13:15:49Z</time>
      </trkpt>
      <trkpt lat="45.76649" lon="4.81871">
        <ele>174.559</ele>
        <time>2015-08-15T13:15:59Z</time>
      </trkpt>
      <trkpt lat="45.76653" lon="4.8179">
        <ele>168.47</ele>
        <time>2015-08-15T13:16:11Z</time>
      </trkpt>
      <trkpt lat="45.76683" lon="4.81612">
        <ele>163.728</ele>
        <time>2015-08-15T13:16:36Z</time>
      </trkpt>
      <trkpt lat="45.76687" lon="4.81599">
        <ele>164.078</ele>
        <time>2015-08-15T13:16:38Z</time>
      </trkpt>
      <trkpt lat="45.76709" lon="4.81533">
        <ele>164.437</ele>
        <time>2015-08-15T13:16:48Z</time>
      </trkpt>
      <trkpt lat="45.76717" lon="4.81517">
        <ele>164.747</ele>
        <time>2015-08-15T13:16:51Z</time>
      </trkpt>
      <trkpt lat="45.76727" lon="4.81492">
        <ele>164.634</ele>
        <time>2015-08-15T13:16:55Z</time>
      </trkpt>
      <trkpt lat="45.76736" lon="4.8146">
        <ele>164.716</ele>
        <time>2015-08-15T13:17:00Z</time>
      </trkpt>
      <trkpt lat="45.76794" lon="4.81332">
        <ele>164.945</ele>
        <time>2015-08-15T13:17:20Z</time>
      </trkpt>
      <trkpt lat="45.76863" lon="4.81281">
        <ele>167.095</ele>
        <time>2015-08-15T13:17:35Z</time>
      </trkpt>
      <trkpt lat="45.76903" lon="4.81276">
        <ele>168.194</ele>
        <time>2015-08-15T13:17:43Z</time>
      </trkpt>
      <trkpt lat="45.76997" lon="4.81262">
        <ele>170.821</ele>
        <time>2015-08-15T13:18:03Z</time>
      </trkpt>
      <trkpt lat="45.77009" lon="4.81254">
        <ele>170.987</ele>
        <time>2015-08-15T13:18:06Z</time>
      </trkpt>
      <trkpt lat="45.77021" lon="4.81241">
        <ele>170.345</ele>
        <time>2015-08-15T13:18:09Z</time>
      </trkpt>
      <trkpt lat="45.77058" lon="4.8122">
        <ele>169.458</ele>
        <time>2015-08-15T13:18:17Z</time>
      </trkpt>
      <trkpt lat="45.7708" lon="4.8121">
        <ele>168.718</ele>
        <time>2015-08-15T13:18:22Z</time>
      </trkpt>
      <trkpt lat="45.77135" lon="4.81185">
        <ele>167.718</ele>
        <time>2015-08-15T13:18:34Z</time>
      </trkpt>
      <trkpt lat="45.77163" lon="4.81172">
        <ele>167.669</ele>
        <time>2015-08-15T13:18:40Z</time>
      </trkpt>
      <trkpt lat="45.77191" lon="4.81157">
        <ele>169.504</ele>
        <time>2015-08-15T13:18:46Z</time>
      </trkpt>
      <trkpt lat="45.77283" lon="4.81054">
        <ele>169.864</ele>
        <time>2015-08-15T13:19:09Z</time>
      </trkpt>
      <trkpt lat="45.77373" lon="4.80962">
        <ele>170.11</ele>
        <time>2015-08-15T13:19:31Z</time>
      </trkpt>
      <trkpt lat="45.77393" lon="4.8094">
        <ele>169.893</ele>
        <time>2015-08-15T13:19:36Z</time>
      </trkpt>
      <trkpt lat="45.77473" lon="4.80872">
        <ele>167.82</ele>
        <time>2015-08-15T13:19:52Z</time>
      </trkpt>
      <trkpt lat="45.77483" lon="4.80868">
        <ele>168.685</ele>
        <time>2015-08-15T13:19:54Z</time>
      </trkpt>
      <trkpt lat="45.77492" lon="4.80866">
        <ele>168.879</ele>
        <time>2015-08-15T13:19:56Z</time>
      </trkpt>
      <trkpt lat="45.77501" lon="4.80861">
        <ele>168.742</ele>
        <time>2015-08-15T13:19:58Z</time>
      </trkpt>
      <trkpt lat="45.77515" lon="4.80853">
        <ele>168.462</ele>
        <time>2015-08-15T13:20:02Z</time>
      </trkpt>
      <trkpt lat="45.77532" lon="4.80842">
        <ele>168.166</ele>
        <time>2015-08-15T13:20:06Z</time>
      </trkpt>
      <trkpt lat="45.7762" lon="4.80807">
        <ele>169.24</ele>
        <time>2015-08-15T13:20:22Z</time>
      </trkpt>
      <trkpt lat="45.77681" lon="4.80781">
        <ele>170.109</ele>
        <time>2015-08-15T13:20:33Z</time>
      </trkpt>
      <trkpt lat="45.77703" lon="4.80782">
        <ele>169.945</ele>
        <time>2015-08-15T13:20:37Z</time>
      </trkpt>
      <trkpt lat="45.77718" lon="4.80782">
        <ele>169.239</ele>
        <time>2015-08-15T13:20:40Z</time>
      </trkpt>
      <trkpt lat="45.77728" lon="4.80782">
        <ele>167.536</ele>
        <time>2015-08-15T13:20:44Z</time>
      </trkpt>
      <trkpt lat="45.77744" lon="4.80785">
        <ele>163.172</ele>
        <time>2015-08-15T13:20:48Z</time>
      </trkpt>
      <trkpt lat="45.77801" lon="4.80798">
        <ele>166.452</ele>
        <time>2015-08-15T13:20:59Z</time>
      </trkpt>
      <trkpt lat="45.77839" lon="4.80806">
        <ele>167.097</ele>
        <time>2015-08-15T13:21:07Z</time>
      </trkpt>
      <trkpt lat="45.77857" lon="4.80805">
        <ele>166.716</ele>
        <time>2015-08-15T13:21:11Z</time>
      </trkpt>
      <trkpt lat="45.77906" lon="4.80829">
        <ele>168.28</ele>
        <time>2015-08-15T13:21:21Z</time>
      </trkpt>
      <trkpt lat="45.77956" lon="4.80857">
        <ele>166.604</ele>
        <time>2015-08-15T13:21:32Z</time>
      </trkpt>
      <trkpt lat="45.78009" lon="4.80888">
        <ele>166.851</ele>
        <time>2015-08-15T13:21:44Z</time>
      </trkpt>
      <trkpt lat="45.78045" lon="4.80904">
        <ele>170.126</ele>
        <time>2015-08-15T13:21:52Z</time>
      </trkpt>
      <trkpt lat="45.78074" lon="4.80884">
        <ele>170.823</ele>
        <time>2015-08-15T13:21:59Z</time>
      </trkpt>
      <trkpt lat="45.78109" lon="4.80801">
        <ele>169.458</ele>
        <time>2015-08-15T13:22:13Z</time>
      </trkpt>
      <trkpt lat="45.78152" lon="4.80705">
        <ele>168.383</ele>
        <time>2015-08-15T13:22:30Z</time>
      </trkpt>
      <trkpt lat="45.78179" lon="4.80693">
        <ele>168.978</ele>
        <time>2015-08-15T13:22:37Z</time>
      </trkpt>
      <trkpt lat="45.78239" lon="4.80735">
        <ele>169.788</ele>
        <time>2015-08-15T13:22:50Z</time>
      </trkpt>
      <trkpt lat="45.78261" lon="4.80743">
        <ele>169.954</ele>
        <time>2015-08-15T13:22:55Z</time>
      </trkpt>
      <trkpt lat="45.78373" lon="4.80805">
        <ele>171.118</ele>
        <time>2015-08-15T13:23:18Z</time>
      </trkpt>
      <trkpt lat="45.78448" lon="4.80844">
        <ele>172.995</ele>
        <time>2015-08-15T13:23:34Z</time>
      </trkpt>
      <trkpt lat="45.78458" lon="4.80845">
        <ele>172.468</ele>
        <time>2015-08-15T13:23:36Z</time>
      </trkpt>
      <trkpt lat="45.78508" lon="4.80824">
        <ele>170.778</ele>
        <time>2015-08-15T13:23:46Z</time>
      </trkpt>
      <trkpt lat="45.78551" lon="4.80789">
        <ele>171.653</ele>
        <time>2015-08-15T13:23:55Z</time>
      </trkpt>
      <trkpt lat="45.78615" lon="4.80809">
        <ele>171.617</ele>
        <time>2015-08-15T13:24:08Z</time>
      </trkpt>
      <trkpt lat="45.7865" lon="4.80823">
        <ele>173.348</ele>
        <time>2015-08-15T13:24:16Z</time>
      </trkpt>
      <trkpt lat="45.78714" lon="4.80853">
        <ele>177.055</ele>
        <time>2015-08-15T13:24:32Z</time>
      </trkpt>
      <trkpt lat="45.78785" lon="4.80882">
        <ele>181.19</ele>
        <time>2015-08-15T13:24:50Z</time>
      </trkpt>
      <trkpt lat="45.78821" lon="4.80866">
        <ele>180.731</ele>
        <time>2015-08-15T13:25:02Z</time>
      </trkpt>
      <trkpt lat="45.78873" lon="4.80793">
        <ele>182.415</ele>
        <time>2015-08-15T13:25:23Z</time>
      </trkpt>
      <trkpt lat="45.78891" lon="4.80745">
        <ele>181.105</ele>
        <time>2015-08-15T13:25:34Z</time>
      </trkpt>
      <trkpt lat="45.7889" lon="4.80733">
        <ele>180.582</ele>
        <time>2015-08-15T13:25:36Z</time>
      </trkpt>
      <trkpt lat="45.78897" lon="4.80713">
        <ele>180.99</ele>
        <time>2015-08-15T13:25:40Z</time>
      </trkpt>
      <trkpt lat="45.78939" lon="4.8066">
        <ele>180.309</ele>
        <time>2015-08-15T13:25:55Z</time>
      </trkpt>
      <trkpt lat="45.78971" lon="4.8059">
        <ele>183.633</ele>
        <time>2015-08-15T13:26:10Z</time>
      </trkpt>
      <trkpt lat="45.78974" lon="4.80579">
        <ele>184.211</ele>
        <time>2015-08-15T13:26:12Z</time>
      </trkpt>
      <trkpt lat="45.78981" lon="4.80553">
        <ele>184.685</ele>
        <time>2015-08-15T13:26:17Z</time>
      </trkpt>
      <trkpt lat="45.79006" lon="4.80498">
        <ele>185.306</ele>
        <time>2015-08-15T13:26:29Z</time>
      </trkpt>
      <trkpt lat="45.79026" lon="4.80471">
        <ele>186.719</ele>
        <time>2015-08-15T13:26:39Z</time>
      </trkpt>
      <trkpt lat="45.7909" lon="4.80412">
        <ele>192.019</ele>
        <time>2015-08-15T13:26:55Z</time>
      </trkpt>
      <trkpt lat="45.79128" lon="4.80341">
        <ele>192.27</ele>
        <time>2015-08-15T13:27:11Z</time>
      </trkpt>
      <trkpt lat="45.79167" lon="4.80295">
        <ele>196.557</ele>
        <time>2015-08-15T13:27:28Z</time>
      </trkpt>
      <trkpt lat="45.79206" lon="4.80282">
        <ele>200.865</ele>
        <time>2015-08-15T13:27:46Z</time>
      </trkpt>
      <trkpt lat="45.79239" lon="4.80256">
        <ele>197.981</ele>
        <time>2015-08-15T13:28:05Z</time>
      </trkpt>
      <trkpt lat="45.79246" lon="4.8025">
        <ele>197.645</ele>
        <time>2015-08-15T13:28:09Z</time>
      </trkpt>
      <trkpt lat="45.7925" lon="4.80202">
        <ele>197.652</ele>
        <time>2015-08-15T13:28:26Z</time>
      </trkpt>
      <trkpt lat="45.7925" lon="4.80141">
        <ele>198.224</ele>
        <time>2015-08-15T13:28:48Z</time>
      </trkpt>
      <trkpt lat="45.79251" lon="4.80091">
        <ele>198.457</ele>
        <time>2015-08-15T13:29:06Z</time>
      </trkpt>
      <trkpt lat="45.79257" lon="4.80042">
        <ele>203.082</ele>
        <time>2015-08-15T13:29:23Z</time>
      </trkpt>
      <trkpt lat="45.7928" lon="4.80006">
        <ele>204.643</ele>
        <time>2015-08-15T13:29:38Z</time>
      </trkpt>
      <trkpt lat="45.79297" lon="4.80002">
        <ele>206.164</ele>
        <time>2015-08-15T13:29:46Z</time>
      </trkpt>
      <trkpt lat="45.79313" lon="4.79993">
        <ele>208.363</ele>
        <time>2015-08-15T13:29:55Z</time>
      </trkpt>
      <trkpt lat="45.79336" lon="4.79985">
        <ele>210.603</ele>
        <time>2015-08-15T13:30:07Z</time>
      </trkpt>
      <trkpt lat="45.79338" lon="4.79982">
        <ele>210.925</ele>
        <time>2015-08-15T13:30:09Z</time>
      </trkpt>
      <trkpt lat="45.79342" lon="4.79982">
        <ele>210.834</ele>
        <time>2015-08-15T13:30:11Z</time>
      </trkpt>
      <trkpt lat="45.79346" lon="4.79976">
        <ele>211.527</ele>
        <time>2015-08-15T13:30:14Z</time>
      </trkpt>
      <trkpt lat="45.79364" lon="4.79959">
        <ele>215.061</ele>
        <time>2015-08-15T13:30:26Z</time>
      </trkpt>
      <trkpt lat="45.79385" lon="4.7996">
        <ele>217.007</ele>
        <time>2015-08-15T13:30:35Z</time>
      </trkpt>
      <trkpt lat="45.79401" lon="4.79957">
        <ele>220.444</ele>
        <time>2015-08-15T13:30:44Z</time>
      </trkpt>
      <trkpt lat="45.79414" lon="4.79957">
        <ele>223.039</ele>
        <time>2015-08-15T13:30:52Z</time>
      </trkpt>
      <trkpt lat="45.79437" lon="4.79958">
        <ele>228.134</ele>
        <time>2015-08-15T13:31:06Z</time>
      </trkpt>
      <trkpt lat="45.79445" lon="4.79954">
        <ele>229.689</ele>
        <time>2015-08-15T13:31:11Z</time>
      </trkpt>
      <trkpt lat="45.79475" lon="4.79934">
        <ele>230.883</ele>
        <time>2015-08-15T13:31:31Z</time>
      </trkpt>
      <trkpt lat="45.79507" lon="4.79914">
        <ele>232.313</ele>
        <time>2015-08-15T13:31:49Z</time>
      </trkpt>
      <trkpt lat="45.79536" lon="4.79913">
        <ele>233.215</ele>
        <time>2015-08-15T13:32:02Z</time>
      </trkpt>
      <trkpt lat="45.79577" lon="4.79918">
        <ele>237.696</ele>
        <time>2015-08-15T13:32:16Z</time>
      </trkpt>
      <trkpt lat="45.79618" lon="4.79915">
        <ele>241.13</ele>
        <time>2015-08-15T13:32:29Z</time>
      </trkpt>
      <trkpt lat="45.79626" lon="4.79913">
        <ele>241.779</ele>
        <time>2015-08-15T13:32:31Z</time>
      </trkpt>
      <trkpt lat="45.79656" lon="4.79903">
        <ele>241.148</ele>
        <time>2015-08-15T13:32:38Z</time>
      </trkpt>
      <trkpt lat="45.79675" lon="4.79896">
        <ele>241.389</ele>
        <time>2015-08-15T13:32:43Z</time>
      </trkpt>
      <trkpt lat="45.79692" lon="4.7989">
        <ele>242.231</ele>
        <time>2015-08-15T13:32:47Z</time>
      </trkpt>
      <trkpt lat="45.79703" lon="4.79884">
        <ele>242.495</ele>
        <time>2015-08-15T13:32:50Z</time>
      </trkpt>
      <trkpt lat="45.79725" lon="4.7987">
        <ele>243.345</ele>
        <time>2015-08-15T13:32:56Z</time>
      </trkpt>
      <trkpt lat="45.79773" lon="4.7986">
        <ele>247.417</ele>
        <time>2015-08-15T13:33:09Z</time>
      </trkpt>
      <trkpt lat="45.79795" lon="4.79857">
        <ele>249.1</ele>
        <time>2015-08-15T13:33:15Z</time>
      </trkpt>
      <trkpt lat="45.79853" lon="4.79865">
        <ele>254.786</ele>
        <time>2015-08-15T13:33:29Z</time>
      </trkpt>
      <trkpt lat="45.79869" lon="4.79864">
        <ele>254.847</ele>
        <time>2015-08-15T13:33:33Z</time>
      </trkpt>
      <trkpt lat="45.79933" lon="4.79823">
        <ele>254.378</ele>
        <time>2015-08-15T13:33:50Z</time>
      </trkpt>
      <trkpt lat="45.79937" lon="4.79821">
        <ele>254.803</ele>
        <time>2015-08-15T13:33:51Z</time>
      </trkpt>
      <trkpt lat="45.79972" lon="4.79813">
        <ele>260.646</ele>
        <time>2015-08-15T13:34:02Z</time>
      </trkpt>
      <trkpt lat="45.80002" lon="4.79813">
        <ele>266.436</ele>
        <time>2015-08-15T13:34:15Z</time>
      </trkpt>
      <trkpt lat="45.80013" lon="4.79812">
        <ele>267.216</ele>
        <time>2015-08-15T13:34:20Z</time>
      </trkpt>
      <trkpt lat="45.80017" lon="4.79811">
        <ele>266.553</ele>
        <time>2015-08-15T13:34:22Z</time>
      </trkpt>
      <trkpt lat="45.80046" lon="4.79811">
        <ele>268.542</ele>
        <time>2015-08-15T13:34:37Z</time>
      </trkpt>
      <trkpt lat="45.80054" lon="4.79811">
        <ele>266.503</ele>
        <time>2015-08-15T13:34:41Z</time>
      </trkpt>
      <trkpt lat="45.80073" lon="4.79811">
        <ele>263.741</ele>
        <time>2015-08-15T13:34:51Z</time>
      </trkpt>
      <trkpt lat="45.8008" lon="4.79809">
        <ele>263.831</ele>
        <time>2015-08-15T13:34:56Z</time>
      </trkpt>
      <trkpt lat="45.80087" lon="4.79805">
        <ele>264.259</ele>
        <time>2015-08-15T13:35:00Z</time>
      </trkpt>
      <trkpt lat="45.8012" lon="4.7978">
        <ele>265.002</ele>
        <time>2015-08-15T13:35:14Z</time>
      </trkpt>
      <trkpt lat="45.80144" lon="4.79718">
        <ele>263.96</ele>
        <time>2015-08-15T13:35:29Z</time>
      </trkpt>
      <trkpt lat="45.80158" lon="4.79634">
        <ele>258.762</ele>
        <time>2015-08-15T13:35:42Z</time>
      </trkpt>
      <trkpt lat="45.80168" lon="4.79524">
        <ele>258.701</ele>
        <time>2015-08-15T13:35:54Z</time>
      </trkpt>
      <trkpt lat="45.80173" lon="4.7945">
        <ele>261.465</ele>
        <time>2015-08-15T13:36:04Z</time>
      </trkpt>
      <trkpt lat="45.80195" lon="4.79394">
        <ele>269.407</ele>
        <time>2015-08-15T13:36:15Z</time>
      </trkpt>
      <trkpt lat="45.80204" lon="4.79319">
        <ele>259.477</ele>
        <time>2015-08-15T13:36:30Z</time>
      </trkpt>
      <trkpt lat="45.80198" lon="4.79256">
        <ele>265.847</ele>
        <time>2015-08-15T13:36:47Z</time>
      </trkpt>
      <trkpt lat="45.80176" lon="4.79229">
        <ele>267.326</ele>
        <time>2015-08-15T13:37:02Z</time>
      </trkpt>
      <trkpt lat="45.80166" lon="4.79222">
        <ele>271.305</ele>
        <time>2015-08-15T13:37:08Z</time>
      </trkpt>
      <trkpt lat="45.80164" lon="4.79206">
        <ele>273.746</ele>
        <time>2015-08-15T13:37:16Z</time>
      </trkpt>
      <trkpt lat="45.80165" lon="4.79183">
        <ele>276.801</ele>
        <time>2015-08-15T13:37:27Z</time>
      </trkpt>
      <trkpt lat="45.80187" lon="4.79153">
        <ele>280.441</ele>
        <time>2015-08-15T13:37:45Z</time>
      </trkpt>
      <trkpt lat="45.80201" lon="4.79138">
        <ele>282.657</ele>
        <time>2015-08-15T13:37:57Z</time>
      </trkpt>
      <trkpt lat="45.80206" lon="4.79133">
        <ele>284.305</ele>
        <time>2015-08-15T13:38:01Z</time>
      </trkpt>
      <trkpt lat="45.8022" lon="4.791">
        <ele>282.09</ele>
        <time>2015-08-15T13:38:14Z</time>
      </trkpt>
      <trkpt lat="45.80223" lon="4.79074">
        <ele>281.002</ele>
        <time>2015-08-15T13:38:26Z</time>
      </trkpt>
      <trkpt lat="45.80223" lon="4.79067">
        <ele>281.973</ele>
        <time>2015-08-15T13:38:29Z</time>
      </trkpt>
      <trkpt lat="45.80218" lon="4.79033">
        <ele>285.316</ele>
        <time>2015-08-15T13:38:47Z</time>
      </trkpt>
      <trkpt lat="45.80217" lon="4.79021">
        <ele>285.44</ele>
        <time>2015-08-15T13:38:54Z</time>
      </trkpt>
      <trkpt lat="45.80211" lon="4.78983">
        <ele>286.755</ele>
        <time>2015-08-15T13:39:12Z</time>
      </trkpt>
      <trkpt lat="45.80209" lon="4.78954">
        <ele>283.786</ele>
        <time>2015-08-15T13:39:26Z</time>
      </trkpt>
      <trkpt lat="45.80201" lon="4.7893">
        <ele>283.645</ele>
        <time>2015-08-15T13:39:41Z</time>
      </trkpt>
      <trkpt lat="45.802" lon="4.78926">
        <ele>282.942</ele>
        <time>2015-08-15T13:39:43Z</time>
      </trkpt>
      <trkpt lat="45.80199" lon="4.78921">
        <ele>282.226</ele>
        <time>2015-08-15T13:39:46Z</time>
      </trkpt>
      <trkpt lat="45.80193" lon="4.78903">
        <ele>283.099</ele>
        <time>2015-08-15T13:39:55Z</time>
      </trkpt>
      <trkpt lat="45.80181" lon="4.78859">
        <ele>279.887</ele>
        <time>2015-08-15T13:40:07Z</time>
      </trkpt>
      <trkpt lat="45.80175" lon="4.78846">
        <ele>278.33</ele>
        <time>2015-08-15T13:40:13Z</time>
      </trkpt>
      <trkpt lat="45.80174" lon="4.78843">
        <ele>278.996</ele>
        <time>2015-08-15T13:40:15Z</time>
      </trkpt>
      <trkpt lat="45.80171" lon="4.78835">
        <ele>279.148</ele>
        <time>2015-08-15T13:40:20Z</time>
      </trkpt>
      <trkpt lat="45.80171" lon="4.78822">
        <ele>279.548</ele>
        <time>2015-08-15T13:40:27Z</time>
      </trkpt>
      <trkpt lat="45.80171" lon="4.78814">
        <ele>279.304</ele>
        <time>2015-08-15T13:40:31Z</time>
      </trkpt>
      <trkpt lat="45.80173" lon="4.78803">
        <ele>279.995</ele>
        <time>2015-08-15T13:40:37Z</time>
      </trkpt>
      <trkpt lat="45.80178" lon="4.78794">
        <ele>281.629</ele>
        <time>2015-08-15T13:40:43Z</time>
      </trkpt>
      <trkpt lat="45.80181" lon="4.78787">
        <ele>283.011</ele>
        <time>2015-08-15T13:40:47Z</time>
      </trkpt>
      <trkpt lat="45.80192" lon="4.78759">
        <ele>283.82</ele>
        <time>2015-08-15T13:41:02Z</time>
      </trkpt>
      <trkpt lat="45.80193" lon="4.7875">
        <ele>284.776</ele>
        <time>2015-08-15T13:41:06Z</time>
      </trkpt>
      <trkpt lat="45.80193" lon="4.78741">
        <ele>285.948</ele>
        <time>2015-08-15T13:41:10Z</time>
      </trkpt>
      <trkpt lat="45.80192" lon="4.78737">
        <ele>285.691</ele>
        <time>2015-08-15T13:41:12Z</time>
      </trkpt>
      <trkpt lat="45.80191" lon="4.78726">
        <ele>286.618</ele>
        <time>2015-08-15T13:41:17Z</time>
      </trkpt>
      <trkpt lat="45.80188" lon="4.78717">
        <ele>287.015</ele>
        <time>2015-08-15T13:41:21Z</time>
      </trkpt>
      <trkpt lat="45.80179" lon="4.787">
        <ele>288.722</ele>
        <time>2015-08-15T13:41:30Z</time>
      </trkpt>
      <trkpt lat="45.80168" lon="4.78667">
        <ele>292.188</ele>
        <time>2015-08-15T13:41:46Z</time>
      </trkpt>
      <trkpt lat="45.80168" lon="4.78667">
        <ele>292.582</ele>
        <time>2015-08-15T13:42:20Z</time>
      </trkpt>
      <trkpt lat="45.80168" lon="4.78667">
        <ele>292.601</ele>
        <time>2015-08-15T13:42:48Z</time>
      </trkpt>
      <trkpt lat="45.80174" lon="4.78668">
        <ele>292.435</ele>
        <time>2015-08-15T13:42:54Z</time>
      </trkpt>
      <trkpt lat="45.80175" lon="4.7867">
        <ele>292.711</ele>
        <time>2015-08-15T13:42:59Z</time>
      </trkpt>
      <trkpt lat="45.80197" lon="4.78672">
        <ele>294.205</ele>
        <time>2015-08-15T13:43:11Z</time>
      </trkpt>
      <trkpt lat="45.80242" lon="4.78672">
        <ele>295.817</ele>
        <time>2015-08-15T13:43:23Z</time>
      </trkpt>
      <trkpt lat="45.80268" lon="4.78672">
        <ele>294.083</ele>
        <time>2015-08-15T13:43:27Z</time>
      </trkpt>
      <trkpt lat="45.80307" lon="4.78674">
        <ele>285.786</ele>
        <time>2015-08-15T13:43:33Z</time>
      </trkpt>
      <trkpt lat="45.80319" lon="4.78676">
        <ele>283.048</ele>
        <time>2015-08-15T13:43:35Z</time>
      </trkpt>
      <trkpt lat="45.80352" lon="4.78663">
        <ele>277.691</ele>
        <time>2015-08-15T13:43:40Z</time>
      </trkpt>
      <trkpt lat="45.8043" lon="4.78612">
        <ele>275.128</ele>
        <time>2015-08-15T13:43:49Z</time>
      </trkpt>
      <trkpt lat="45.80462" lon="4.78615">
        <ele>271.264</ele>
        <time>2015-08-15T13:43:57Z</time>
      </trkpt>
      <trkpt lat="45.80479" lon="4.78624">
        <ele>268.539</ele>
        <time>2015-08-15T13:44:10Z</time>
      </trkpt>
      <trkpt lat="45.80501" lon="4.78648">
        <ele>268.44</ele>
        <time>2015-08-15T13:44:23Z</time>
      </trkpt>
      <trkpt lat="45.80513" lon="4.78647">
        <ele>269.764</ele>
        <time>2015-08-15T13:44:29Z</time>
      </trkpt>
      <trkpt lat="45.80517" lon="4.78645">
        <ele>269.979</ele>
        <time>2015-08-15T13:44:31Z</time>
      </trkpt>
      <trkpt lat="45.80525" lon="4.78639">
        <ele>270.505</ele>
        <time>2015-08-15T13:44:35Z</time>
      </trkpt>
      <trkpt lat="45.80544" lon="4.78626">
        <ele>272.058</ele>
        <time>2015-08-15T13:44:45Z</time>
      </trkpt>
      <trkpt lat="45.80546" lon="4.78621">
        <ele>271.59</ele>
        <time>2015-08-15T13:44:47Z</time>
      </trkpt>
      <trkpt lat="45.80548" lon="4.78613">
        <ele>272.948</ele>
        <time>2015-08-15T13:44:58Z</time>
      </trkpt>
      <trkpt lat="45.80556" lon="4.78605">
        <ele>272.223</ele>
        <time>2015-08-15T13:45:09Z</time>
      </trkpt>
      <trkpt lat="45.8056" lon="4.78599">
        <ele>270.823</ele>
        <time>2015-08-15T13:45:13Z</time>
      </trkpt>
      <trkpt lat="45.80578" lon="4.78554">
        <ele>268.009</ele>
        <time>2015-08-15T13:45:31Z</time>
      </trkpt>
      <trkpt lat="45.80592" lon="4.78498">
        <ele>269.859</ele>
        <time>2015-08-15T13:45:47Z</time>
      </trkpt>
      <trkpt lat="45.80592" lon="4.78479">
        <ele>274.66</ele>
        <time>2015-08-15T13:45:59Z</time>
      </trkpt>
      <trkpt lat="45.80596" lon="4.78468">
        <ele>277.99</ele>
        <time>2015-08-15T13:46:13Z</time>
      </trkpt>
      <trkpt lat="45.80597" lon="4.78463">
        <ele>277.306</ele>
        <time>2015-08-15T13:46:19Z</time>
      </trkpt>
      <trkpt lat="45.806" lon="4.78456">
        <ele>277.511</ele>
        <time>2015-08-15T13:46:23Z</time>
      </trkpt>
      <trkpt lat="45.80602" lon="4.78452">
        <ele>277.614</ele>
        <time>2015-08-15T13:46:25Z</time>
      </trkpt>
      <trkpt lat="45.80606" lon="4.78446">
        <ele>277.192</ele>
        <time>2015-08-15T13:46:29Z</time>
      </trkpt>
      <trkpt lat="45.80618" lon="4.78431">
        <ele>277.598</ele>
        <time>2015-08-15T13:46:44Z</time>
      </trkpt>
      <trkpt lat="45.80621" lon="4.78427">
        <ele>278.74</ele>
        <time>2015-08-15T13:46:53Z</time>
      </trkpt>
      <trkpt lat="45.80636" lon="4.78408">
        <ele>280.198</ele>
        <time>2015-08-15T13:47:02Z</time>
      </trkpt>
      <trkpt lat="45.80652" lon="4.78403">
        <ele>280.861</ele>
        <time>2015-08-15T13:47:08Z</time>
      </trkpt>
      <trkpt lat="45.80665" lon="4.78407">
        <ele>282.457</ele>
        <time>2015-08-15T13:47:12Z</time>
      </trkpt>
      <trkpt lat="45.80675" lon="4.78403">
        <ele>281.246</ele>
        <time>2015-08-15T13:47:18Z</time>
      </trkpt>
      <trkpt lat="45.80681" lon="4.78402">
        <ele>280.768</ele>
        <time>2015-08-15T13:47:22Z</time>
      </trkpt>
      <trkpt lat="45.80683" lon="4.78399">
        <ele>281.175</ele>
        <time>2015-08-15T13:47:45Z</time>
      </trkpt>
      <trkpt lat="45.80683" lon="4.78399">
        <ele>281.175</ele>
        <time>2015-08-15T13:47:48Z</time>
      </trkpt>
      <trkpt lat="45.80691" lon="4.78397">
        <ele>281.038</ele>
        <time>2015-08-15T13:47:52Z</time>
      </trkpt>
      <trkpt lat="45.80739" lon="4.78387">
        <ele>284.751</ele>
        <time>2015-08-15T13:48:02Z</time>
      </trkpt>
      <trkpt lat="45.80779" lon="4.78381">
        <ele>285.561</ele>
        <time>2015-08-15T13:48:11Z</time>
      </trkpt>
      <trkpt lat="45.80809" lon="4.78365">
        <ele>280.118</ele>
        <time>2015-08-15T13:48:24Z</time>
      </trkpt>
      <trkpt lat="45.80823" lon="4.78366">
        <ele>275.053</ele>
        <time>2015-08-15T13:48:34Z</time>
      </trkpt>
      <trkpt lat="45.80841" lon="4.78365">
        <ele>273.638</ele>
        <time>2015-08-15T13:48:46Z</time>
      </trkpt>
      <trkpt lat="45.80863" lon="4.78369">
        <ele>275.262</ele>
        <time>2015-08-15T13:49:00Z</time>
      </trkpt>
      <trkpt lat="45.80879" lon="4.78368">
        <ele>273.168</ele>
        <time>2015-08-15T13:49:11Z</time>
      </trkpt>
      <trkpt lat="45.80887" lon="4.78361">
        <ele>272.037</ele>
        <time>2015-08-15T13:49:15Z</time>
      </trkpt>
      <trkpt lat="45.80901" lon="4.78324">
        <ele>271.33</ele>
        <time>2015-08-15T13:49:21Z</time>
      </trkpt>
      <trkpt lat="45.80915" lon="4.78286">
        <ele>271.171</ele>
        <time>2015-08-15T13:49:28Z</time>
      </trkpt>
      <trkpt lat="45.80921" lon="4.78269">
        <ele>270.359</ele>
        <time>2015-08-15T13:49:36Z</time>
      </trkpt>
      <trkpt lat="45.80941" lon="4.78257">
        <ele>276.326</ele>
        <time>2015-08-15T13:49:48Z</time>
      </trkpt>
      <trkpt lat="45.80976" lon="4.7826">
        <ele>279.995</ele>
        <time>2015-08-15T13:50:01Z</time>
      </trkpt>
      <trkpt lat="45.81009" lon="4.78266">
        <ele>283.718</ele>
        <time>2015-08-15T13:50:13Z</time>
      </trkpt>
      <trkpt lat="45.81043" lon="4.78263">
        <ele>297.753</ele>
        <time>2015-08-15T13:50:21Z</time>
      </trkpt>
      <trkpt lat="45.81072" lon="4.78262">
        <ele>301.336</ele>
        <time>2015-08-15T13:50:31Z</time>
      </trkpt>
      <trkpt lat="45.81106" lon="4.78262">
        <ele>309.023</ele>
        <time>2015-08-15T13:50:42Z</time>
      </trkpt>
      <trkpt lat="45.8115" lon="4.78252">
        <ele>315.147</ele>
        <time>2015-08-15T13:50:53Z</time>
      </trkpt>
      <trkpt lat="45.81165" lon="4.78243">
        <ele>310.11</ele>
        <time>2015-08-15T13:51:03Z</time>
      </trkpt>
      <trkpt lat="45.81169" lon="4.7824">
        <ele>308.617</ele>
        <time>2015-08-15T13:51:13Z</time>
      </trkpt>
      <trkpt lat="45.81175" lon="4.78233">
        <ele>300.545</ele>
        <time>2015-08-15T13:51:19Z</time>
      </trkpt>
      <trkpt lat="45.81187" lon="4.78232">
        <ele>295.264</ele>
        <time>2015-08-15T13:51:26Z</time>
      </trkpt>
      <trkpt lat="45.81214" lon="4.78225">
        <ele>290.255</ele>
        <time>2015-08-15T13:51:41Z</time>
      </trkpt>
      <trkpt lat="45.81241" lon="4.78246">
        <ele>286.315</ele>
        <time>2015-08-15T13:51:54Z</time>
      </trkpt>
      <trkpt lat="45.81267" lon="4.78296">
        <ele>284.854</ele>
        <time>2015-08-15T13:52:10Z</time>
      </trkpt>
      <trkpt lat="45.81279" lon="4.78322">
        <ele>283.496</ele>
        <time>2015-08-15T13:52:18Z</time>
      </trkpt>
      <trkpt lat="45.81293" lon="4.78326">
        <ele>282.545</ele>
        <time>2015-08-15T13:52:24Z</time>
      </trkpt>
      <trkpt lat="45.81301" lon="4.78328">
        <ele>281.547</ele>
        <time>2015-08-15T13:52:28Z</time>
      </trkpt>
      <trkpt lat="45.81303" lon="4.78329">
        <ele>280.708</ele>
        <time>2015-08-15T13:52:30Z</time>
      </trkpt>
      <trkpt lat="45.81326" lon="4.78338">
        <ele>280.97</ele>
        <time>2015-08-15T13:52:43Z</time>
      </trkpt>
      <trkpt lat="45.81346" lon="4.78345">
        <ele>280.563</ele>
        <time>2015-08-15T13:52:52Z</time>
      </trkpt>
      <trkpt lat="45.81384" lon="4.78349">
        <ele>280.739</ele>
        <time>2015-08-15T13:53:05Z</time>
      </trkpt>
      <trkpt lat="45.81416" lon="4.78352">
        <ele>288.865</ele>
        <time>2015-08-15T13:53:16Z</time>
      </trkpt>
      <trkpt lat="45.81447" lon="4.78357">
        <ele>298.777</ele>
        <time>2015-08-15T13:53:27Z</time>
      </trkpt>
      <trkpt lat="45.8148" lon="4.78362">
        <ele>306.935</ele>
        <time>2015-08-15T13:53:40Z</time>
      </trkpt>
      <trkpt lat="45.81515" lon="4.78361">
        <ele>310.427</ele>
        <time>2015-08-15T13:53:52Z</time>
      </trkpt>
      <trkpt lat="45.81552" lon="4.78359">
        <ele>313.607</ele>
        <time>2015-08-15T13:54:04Z</time>
      </trkpt>
      <trkpt lat="45.81582" lon="4.78358">
        <ele>314.246</ele>
        <time>2015-08-15T13:54:14Z</time>
      </trkpt>
      <trkpt lat="45.81616" lon="4.78347">
        <ele>315.782</ele>
        <time>2015-08-15T13:54:25Z</time>
      </trkpt>
      <trkpt lat="45.81655" lon="4.78325">
        <ele>310.428</ele>
        <time>2015-08-15T13:54:34Z</time>
      </trkpt>
      <trkpt lat="45.81687" lon="4.78302">
        <ele>304.083</ele>
        <time>2015-08-15T13:54:39Z</time>
      </trkpt>
      <trkpt lat="45.81697" lon="4.78296">
        <ele>303.608</ele>
        <time>2015-08-15T13:54:41Z</time>
      </trkpt>
      <trkpt lat="45.81718" lon="4.783">
        <ele>303.264</ele>
        <time>2015-08-15T13:54:45Z</time>
      </trkpt>
      <trkpt lat="45.81742" lon="4.78291">
        <ele>304.453</ele>
        <time>2015-08-15T13:54:50Z</time>
      </trkpt>
      <trkpt lat="45.81762" lon="4.78289">
        <ele>308.764</ele>
        <time>2015-08-15T13:54:56Z</time>
      </trkpt>
      <trkpt lat="45.81789" lon="4.7829">
        <ele>311.045</ele>
        <time>2015-08-15T13:55:13Z</time>
      </trkpt>
      <trkpt lat="45.81793" lon="4.78291">
        <ele>309.735</ele>
        <time>2015-08-15T13:55:17Z</time>
      </trkpt>
      <trkpt lat="45.81797" lon="4.78293">
        <ele>311.611</ele>
        <time>2015-08-15T13:55:20Z</time>
      </trkpt>
      <trkpt lat="45.81797" lon="4.78298">
        <ele>311.646</ele>
        <time>2015-08-15T13:55:23Z</time>
      </trkpt>
      <trkpt lat="45.81789" lon="4.783">
        <ele>311.119</ele>
        <time>2015-08-15T13:55:29Z</time>
      </trkpt>
      <trkpt lat="45.81781" lon="4.78296">
        <ele>309.753</ele>
        <time>2015-08-15T13:55:33Z</time>
      </trkpt>
      <trkpt lat="45.81758" lon="4.78312">
        <ele>310.128</ele>
        <time>2015-08-15T13:55:48Z</time>
      </trkpt>
      <trkpt lat="45.81762" lon="4.7833">
        <ele>313.178</ele>
        <time>2015-08-15T13:55:56Z</time>
      </trkpt>
      <trkpt lat="45.81765" lon="4.78333">
        <ele>313.086</ele>
        <time>2015-08-15T13:55:58Z</time>
      </trkpt>
      <trkpt lat="45.81796" lon="4.78333">
        <ele>309.698</ele>
        <time>2015-08-15T13:56:16Z</time>
      </trkpt>
      <trkpt lat="45.81822" lon="4.78341">
        <ele>310.54</ele>
        <time>2015-08-15T13:56:32Z</time>
      </trkpt>
      <trkpt lat="45.81854" lon="4.7836">
        <ele>315.312</ele>
        <time>2015-08-15T13:56:53Z</time>
      </trkpt>
      <trkpt lat="45.8188" lon="4.78376">
        <ele>316.848</ele>
        <time>2015-08-15T13:57:11Z</time>
      </trkpt>
      <trkpt lat="45.81917" lon="4.78396">
        <ele>321.497</ele>
        <time>2015-08-15T13:57:34Z</time>
      </trkpt>
      <trkpt lat="45.81926" lon="4.78402">
        <ele>322.409</ele>
        <time>2015-08-15T13:57:47Z</time>
      </trkpt>
      <trkpt lat="45.81926" lon="4.78402">
        <ele>322.894</ele>
        <time>2015-08-15T13:59:08Z</time>
      </trkpt>
      <trkpt lat="45.81926" lon="4.78403">
        <ele>321.971</ele>
        <time>2015-08-15T13:59:25Z</time>
      </trkpt>
      <trkpt lat="45.81931" lon="4.78404">
        <ele>324.147</ele>
        <time>2015-08-15T14:01:29Z</time>
      </trkpt>
      <trkpt lat="45.81962" lon="4.78413">
        <ele>326.511</ele>
        <time>2015-08-15T14:01:45Z</time>
      </trkpt>
      <trkpt lat="45.81972" lon="4.78416">
        <ele>327.317</ele>
        <time>2015-08-15T14:02:02Z</time>
      </trkpt>
      <trkpt lat="45.81982" lon="4.78417">
        <ele>326.314</ele>
        <time>2015-08-15T14:02:09Z</time>
      </trkpt>
      <trkpt lat="45.81978" lon="4.78376">
        <ele>314.759</ele>
        <time>2015-08-15T14:02:16Z</time>
      </trkpt>
      <trkpt lat="45.81963" lon="4.78352">
        <ele>310.047</ele>
        <time>2015-08-15T14:02:19Z</time>
      </trkpt>
      <trkpt lat="45.81948" lon="4.78337">
        <ele>305.975</ele>
        <time>2015-08-15T14:02:23Z</time>
      </trkpt>
      <trkpt lat="45.81953" lon="4.78338">
        <ele>304.938</ele>
        <time>2015-08-15T14:02:31Z</time>
      </trkpt>
      <trkpt lat="45.81954" lon="4.78338">
        <ele>304.366</ele>
        <time>2015-08-15T14:02:40Z</time>
      </trkpt>
      <trkpt lat="45.81976" lon="4.78351">
        <ele>306.995</ele>
        <time>2015-08-15T14:02:53Z</time>
      </trkpt>
      <trkpt lat="45.8201" lon="4.7836">
        <ele>308.7</ele>
        <time>2015-08-15T14:03:07Z</time>
      </trkpt>
      <trkpt lat="45.82038" lon="4.7837">
        <ele>309.538</ele>
        <time>2015-08-15T14:03:19Z</time>
      </trkpt>
      <trkpt lat="45.82074" lon="4.78377">
        <ele>308.374</ele>
        <time>2015-08-15T14:03:30Z</time>
      </trkpt>
      <trkpt lat="45.82088" lon="4.78379">
        <ele>310.019</ele>
        <time>2015-08-15T14:03:33Z</time>
      </trkpt>
      <trkpt lat="45.82108" lon="4.78389">
        <ele>310.168</ele>
        <time>2015-08-15T14:03:38Z</time>
      </trkpt>
      <trkpt lat="45.82141" lon="4.78384">
        <ele>311.331</ele>
        <time>2015-08-15T14:03:47Z</time>
      </trkpt>
      <trkpt lat="45.82152" lon="4.78378">
        <ele>312.265</ele>
        <time>2015-08-15T14:03:51Z</time>
      </trkpt>
      <trkpt lat="45.82184" lon="4.78386">
        <ele>315.449</ele>
        <time>2015-08-15T14:04:01Z</time>
      </trkpt>
      <trkpt lat="45.8219" lon="4.78384">
        <ele>317.007</ele>
        <time>2015-08-15T14:04:03Z</time>
      </trkpt>
      <trkpt lat="45.82223" lon="4.78398">
        <ele>318.782</ele>
        <time>2015-08-15T14:04:17Z</time>
      </trkpt>
      <trkpt lat="45.82225" lon="4.78401">
        <ele>318.753</ele>
        <time>2015-08-15T14:04:18Z</time>
      </trkpt>
      <trkpt lat="45.82233" lon="4.78401">
        <ele>320.378</ele>
        <time>2015-08-15T14:04:20Z</time>
      </trkpt>
      <trkpt lat="45.82243" lon="4.78404">
        <ele>319.035</ele>
        <time>2015-08-15T14:04:26Z</time>
      </trkpt>
      <trkpt lat="45.82248" lon="4.78405">
        <ele>318.934</ele>
        <time>2015-08-15T14:04:29Z</time>
      </trkpt>
      <trkpt lat="45.82268" lon="4.78415">
        <ele>318.264</ele>
        <time>2015-08-15T14:04:43Z</time>
      </trkpt>
      <trkpt lat="45.82269" lon="4.78418">
        <ele>317.32</ele>
        <time>2015-08-15T14:04:47Z</time>
      </trkpt>
      <trkpt lat="45.82277" lon="4.78423">
        <ele>317.816</ele>
        <time>2015-08-15T14:04:56Z</time>
      </trkpt>
      <trkpt lat="45.82289" lon="4.78435">
        <ele>317.682</ele>
        <time>2015-08-15T14:05:03Z</time>
      </trkpt>
      <trkpt lat="45.823" lon="4.78441">
        <ele>320.78</ele>
        <time>2015-08-15T14:05:12Z</time>
      </trkpt>
      <trkpt lat="45.82305" lon="4.78442">
        <ele>320.445</ele>
        <time>2015-08-15T14:05:16Z</time>
      </trkpt>
      <trkpt lat="45.82309" lon="4.78445">
        <ele>319.464</ele>
        <time>2015-08-15T14:05:19Z</time>
      </trkpt>
      <trkpt lat="45.82315" lon="4.78457">
        <ele>320.016</ele>
        <time>2015-08-15T14:05:27Z</time>
      </trkpt>
      <trkpt lat="45.82321" lon="4.78462">
        <ele>319.672</ele>
        <time>2015-08-15T14:05:32Z</time>
      </trkpt>
      <trkpt lat="45.82324" lon="4.78464">
        <ele>319.365</ele>
        <time>2015-08-15T14:05:34Z</time>
      </trkpt>
      <trkpt lat="45.82341" lon="4.78474">
        <ele>325.411</ele>
        <time>2015-08-15T14:05:48Z</time>
      </trkpt>
      <trkpt lat="45.82344" lon="4.78475">
        <ele>326.461</ele>
        <time>2015-08-15T14:05:51Z</time>
      </trkpt>
      <trkpt lat="45.82345" lon="4.78481">
        <ele>326.956</ele>
        <time>2015-08-15T14:05:56Z</time>
      </trkpt>
      <trkpt lat="45.8233" lon="4.78486">
        <ele>327.865</ele>
        <time>2015-08-15T14:06:10Z</time>
      </trkpt>
      <trkpt lat="45.82324" lon="4.78497">
        <ele>329.298</ele>
        <time>2015-08-15T14:06:18Z</time>
      </trkpt>
      <trkpt lat="45.82327" lon="4.78513">
        <ele>331.821</ele>
        <time>2015-08-15T14:06:24Z</time>
      </trkpt>
      <trkpt lat="45.82351" lon="4.78521">
        <ele>337.499</ele>
        <time>2015-08-15T14:06:39Z</time>
      </trkpt>
      <trkpt lat="45.82355" lon="4.78524">
        <ele>339.105</ele>
        <time>2015-08-15T14:06:42Z</time>
      </trkpt>
      <trkpt lat="45.82356" lon="4.78528">
        <ele>338.504</ele>
        <time>2015-08-15T14:06:45Z</time>
      </trkpt>
      <trkpt lat="45.8236" lon="4.78542">
        <ele>342.229</ele>
        <time>2015-08-15T14:06:51Z</time>
      </trkpt>
      <trkpt lat="45.82363" lon="4.78553">
        <ele>344.709</ele>
        <time>2015-08-15T14:06:56Z</time>
      </trkpt>
      <trkpt lat="45.8237" lon="4.78562">
        <ele>347.107</ele>
        <time>2015-08-15T14:07:01Z</time>
      </trkpt>
      <trkpt lat="45.82375" lon="4.78566">
        <ele>348.779</ele>
        <time>2015-08-15T14:07:05Z</time>
      </trkpt>
      <trkpt lat="45.82379" lon="4.78572">
        <ele>349.802</ele>
        <time>2015-08-15T14:07:21Z</time>
      </trkpt>
      <trkpt lat="45.82379" lon="4.78572">
        <ele>349.821</ele>
        <time>2015-08-15T14:08:43Z</time>
      </trkpt>
      <trkpt lat="45.82389" lon="4.78579">
        <ele>351.169</ele>
        <time>2015-08-15T14:09:07Z</time>
      </trkpt>
      <trkpt lat="45.82394" lon="4.78583">
        <ele>351.41</ele>
        <time>2015-08-15T14:09:12Z</time>
      </trkpt>
      <trkpt lat="45.82398" lon="4.78585">
        <ele>351.927</ele>
        <time>2015-08-15T14:09:15Z</time>
      </trkpt>
      <trkpt lat="45.82405" lon="4.7859">
        <ele>354.376</ele>
        <time>2015-08-15T14:09:21Z</time>
      </trkpt>
      <trkpt lat="45.82431" lon="4.78604">
        <ele>360.486</ele>
        <time>2015-08-15T14:09:40Z</time>
      </trkpt>
      <trkpt lat="45.82436" lon="4.78606">
        <ele>360.485</ele>
        <time>2015-08-15T14:09:43Z</time>
      </trkpt>
      <trkpt lat="45.82463" lon="4.78613">
        <ele>366.787</ele>
        <time>2015-08-15T14:09:59Z</time>
      </trkpt>
      <trkpt lat="45.82475" lon="4.78619">
        <ele>368.372</ele>
        <time>2015-08-15T14:10:06Z</time>
      </trkpt>
      <trkpt lat="45.82505" lon="4.78627">
        <ele>369.766</ele>
        <time>2015-08-15T14:10:23Z</time>
      </trkpt>
      <trkpt lat="45.82531" lon="4.78631">
        <ele>372.187</ele>
        <time>2015-08-15T14:10:38Z</time>
      </trkpt>
      <trkpt lat="45.8256" lon="4.78641">
        <ele>372.65</ele>
        <time>2015-08-15T14:10:54Z</time>
      </trkpt>
      <trkpt lat="45.82565" lon="4.78643">
        <ele>373.432</ele>
        <time>2015-08-15T14:10:57Z</time>
      </trkpt>
      <trkpt lat="45.82591" lon="4.78656">
        <ele>376.33</ele>
        <time>2015-08-15T14:11:13Z</time>
      </trkpt>
      <trkpt lat="45.82596" lon="4.7866">
        <ele>376.33</ele>
        <time>2015-08-15T14:11:16Z</time>
      </trkpt>
      <trkpt lat="45.82598" lon="4.78664">
        <ele>375.418</ele>
        <time>2015-08-15T14:11:18Z</time>
      </trkpt>
      <trkpt lat="45.82616" lon="4.78679">
        <ele>379.051</ele>
        <time>2015-08-15T14:11:31Z</time>
      </trkpt>
      <trkpt lat="45.82632" lon="4.7869">
        <ele>378.951</ele>
        <time>2015-08-15T14:11:43Z</time>
      </trkpt>
      <trkpt lat="45.82635" lon="4.78692">
        <ele>379.157</ele>
        <time>2015-08-15T14:11:45Z</time>
      </trkpt>
      <trkpt lat="45.82649" lon="4.78703">
        <ele>380.888</ele>
        <time>2015-08-15T14:11:57Z</time>
      </trkpt>
      <trkpt lat="45.82662" lon="4.78724">
        <ele>382.558</ele>
        <time>2015-08-15T14:12:10Z</time>
      </trkpt>
      <trkpt lat="45.82669" lon="4.78734">
        <ele>383.249</ele>
        <time>2015-08-15T14:12:17Z</time>
      </trkpt>
      <trkpt lat="45.82672" lon="4.78743">
        <ele>385.095</ele>
        <time>2015-08-15T14:12:39Z</time>
      </trkpt>
      <trkpt lat="45.82671" lon="4.78745">
        <ele>385.721</ele>
        <time>2015-08-15T14:12:56Z</time>
      </trkpt>
      <trkpt lat="45.82671" lon="4.78747">
        <ele>385.976</ele>
        <time>2015-08-15T14:13:08Z</time>
      </trkpt>
      <trkpt lat="45.8268" lon="4.78742">
        <ele>386.227</ele>
        <time>2015-08-15T14:13:16Z</time>
      </trkpt>
      <trkpt lat="45.8271" lon="4.78699">
        <ele>387.988</ele>
        <time>2015-08-15T14:13:37Z</time>
      </trkpt>
      <trkpt lat="45.82749" lon="4.78683">
        <ele>389.182</ele>
        <time>2015-08-15T14:13:52Z</time>
      </trkpt>
      <trkpt lat="45.82804" lon="4.78659">
        <ele>391.259</ele>
        <time>2015-08-15T14:14:12Z</time>
      </trkpt>
      <trkpt lat="45.82812" lon="4.78611">
        <ele>389.841</ele>
        <time>2015-08-15T14:14:23Z</time>
      </trkpt>
      <trkpt lat="45.82791" lon="4.78552">
        <ele>388.615</ele>
        <time>2015-08-15T14:14:39Z</time>
      </trkpt>
      <trkpt lat="45.82787" lon="4.78488">
        <ele>389.252</ele>
        <time>2015-08-15T14:14:54Z</time>
      </trkpt>
      <trkpt lat="45.82819" lon="4.78454">
        <ele>392.273</ele>
        <time>2015-08-15T14:15:08Z</time>
      </trkpt>
      <trkpt lat="45.82867" lon="4.78444">
        <ele>394.871</ele>
        <time>2015-08-15T14:15:25Z</time>
      </trkpt>
      <trkpt lat="45.82918" lon="4.78456">
        <ele>394.907</ele>
        <time>2015-08-15T14:15:42Z</time>
      </trkpt>
      <trkpt lat="45.82965" lon="4.78422">
        <ele>400.204</ele>
        <time>2015-08-15T14:16:00Z</time>
      </trkpt>
      <trkpt lat="45.83015" lon="4.78392">
        <ele>403.581</ele>
        <time>2015-08-15T14:16:18Z</time>
      </trkpt>
      <trkpt lat="45.83032" lon="4.78352">
        <ele>406.665</ele>
        <time>2015-08-15T14:16:32Z</time>
      </trkpt>
      <trkpt lat="45.83028" lon="4.78302">
        <ele>407.382</ele>
        <time>2015-08-15T14:16:45Z</time>
      </trkpt>
      <trkpt lat="45.83001" lon="4.78244">
        <ele>409.038</ele>
        <time>2015-08-15T14:17:03Z</time>
      </trkpt>
      <trkpt lat="45.83005" lon="4.78202">
        <ele>410.693</ele>
        <time>2015-08-15T14:17:16Z</time>
      </trkpt>
      <trkpt lat="45.83008" lon="4.78202">
        <ele>410.733</ele>
        <time>2015-08-15T14:17:17Z</time>
      </trkpt>
      <trkpt lat="45.8303" lon="4.78228">
        <ele>411.992</ele>
        <time>2015-08-15T14:17:38Z</time>
      </trkpt>
      <trkpt lat="45.83053" lon="4.78245">
        <ele>413.98</ele>
        <time>2015-08-15T14:17:55Z</time>
      </trkpt>
      <trkpt lat="45.83085" lon="4.7827">
        <ele>418.404</ele>
        <time>2015-08-15T14:18:18Z</time>
      </trkpt>
      <trkpt lat="45.83109" lon="4.78285">
        <ele>422.856</ele>
        <time>2015-08-15T14:18:36Z</time>
      </trkpt>
      <trkpt lat="45.83134" lon="4.7828">
        <ele>430.291</ele>
        <time>2015-08-15T14:18:54Z</time>
      </trkpt>
      <trkpt lat="45.83141" lon="4.78277">
        <ele>431.784</ele>
        <time>2015-08-15T14:18:59Z</time>
      </trkpt>
      <trkpt lat="45.83162" lon="4.78272">
        <ele>434.56</ele>
        <time>2015-08-15T14:19:13Z</time>
      </trkpt>
      <trkpt lat="45.83186" lon="4.78271">
        <ele>438.395</ele>
        <time>2015-08-15T14:19:31Z</time>
      </trkpt>
      <trkpt lat="45.83205" lon="4.78274">
        <ele>439.969</ele>
        <time>2015-08-15T14:19:44Z</time>
      </trkpt>
      <trkpt lat="45.83236" lon="4.78288">
        <ele>440.551</ele>
        <time>2015-08-15T14:20:06Z</time>
      </trkpt>
      <trkpt lat="45.83237" lon="4.78288">
        <ele>441.042</ele>
        <time>2015-08-15T14:20:07Z</time>
      </trkpt>
      <trkpt lat="45.83251" lon="4.78293">
        <ele>443.303</ele>
        <time>2015-08-15T14:20:17Z</time>
      </trkpt>
      <trkpt lat="45.83258" lon="4.78293">
        <ele>444.708</ele>
        <time>2015-08-15T14:20:21Z</time>
      </trkpt>
      <trkpt lat="45.83267" lon="4.78316">
        <ele>445.962</ele>
        <time>2015-08-15T14:20:34Z</time>
      </trkpt>
      <trkpt lat="45.83267" lon="4.78328">
        <ele>446.999</ele>
        <time>2015-08-15T14:20:40Z</time>
      </trkpt>
      <trkpt lat="45.83264" lon="4.78342">
        <ele>448.057</ele>
        <time>2015-08-15T14:20:48Z</time>
      </trkpt>
      <trkpt lat="45.83263" lon="4.7835">
        <ele>448.733</ele>
        <time>2015-08-15T14:20:52Z</time>
      </trkpt>
      <trkpt lat="45.83266" lon="4.78351">
        <ele>449.297</ele>
        <time>2015-08-15T14:20:55Z</time>
      </trkpt>
      <trkpt lat="45.83268" lon="4.78337">
        <ele>447.827</ele>
        <time>2015-08-15T14:21:00Z</time>
      </trkpt>
      <trkpt lat="45.83257" lon="4.78236">
        <ele>443.968</ele>
        <time>2015-08-15T14:21:13Z</time>
      </trkpt>
      <trkpt lat="45.83253" lon="4.78217">
        <ele>444.113</ele>
        <time>2015-08-15T14:21:16Z</time>
      </trkpt>
      <trkpt lat="45.83251" lon="4.78139">
        <ele>445.086</ele>
        <time>2015-08-15T14:21:31Z</time>
      </trkpt>
      <trkpt lat="45.83279" lon="4.78102">
        <ele>445.555</ele>
        <time>2015-08-15T14:21:44Z</time>
      </trkpt>
      <trkpt lat="45.83324" lon="4.7807">
        <ele>443.449</ele>
        <time>2015-08-15T14:21:58Z</time>
      </trkpt>
      <trkpt lat="45.83362" lon="4.78053">
        <ele>443.616</ele>
        <time>2015-08-15T14:22:08Z</time>
      </trkpt>
      <trkpt lat="45.83413" lon="4.78002">
        <ele>445.792</ele>
        <time>2015-08-15T14:22:26Z</time>
      </trkpt>
      <trkpt lat="45.83423" lon="4.77953">
        <ele>447.277</ele>
        <time>2015-08-15T14:22:40Z</time>
      </trkpt>
      <trkpt lat="45.83435" lon="4.7791">
        <ele>446.329</ele>
        <time>2015-08-15T14:22:53Z</time>
      </trkpt>
      <trkpt lat="45.83447" lon="4.7789">
        <ele>444.494</ele>
        <time>2015-08-15T14:22:57Z</time>
      </trkpt>
      <trkpt lat="45.83478" lon="4.77874">
        <ele>441.916</ele>
        <time>2015-08-15T14:23:02Z</time>
      </trkpt>
      <trkpt lat="45.83572" lon="4.77866">
        <ele>436.883</ele>
        <time>2015-08-15T14:23:14Z</time>
      </trkpt>
      <trkpt lat="45.83603" lon="4.77853">
        <ele>437.484</ele>
        <time>2015-08-15T14:23:19Z</time>
      </trkpt>
      <trkpt lat="45.83619" lon="4.77842">
        <ele>436.952</ele>
        <time>2015-08-15T14:23:22Z</time>
      </trkpt>
      <trkpt lat="45.83642" lon="4.7783">
        <ele>434.326</ele>
        <time>2015-08-15T14:23:26Z</time>
      </trkpt>
      <trkpt lat="45.83671" lon="4.77826">
        <ele>430.882</ele>
        <time>2015-08-15T14:23:30Z</time>
      </trkpt>
      <trkpt lat="45.83762" lon="4.77854">
        <ele>427.287</ele>
        <time>2015-08-15T14:23:41Z</time>
      </trkpt>
      <trkpt lat="45.83794" lon="4.77834">
        <ele>426.962</ele>
        <time>2015-08-15T14:23:47Z</time>
      </trkpt>
      <trkpt lat="45.83792" lon="4.77826">
        <ele>427.176</ele>
        <time>2015-08-15T14:23:48Z</time>
      </trkpt>
      <trkpt lat="45.83771" lon="4.77732">
        <ele>426.332</ele>
        <time>2015-08-15T14:23:59Z</time>
      </trkpt>
      <trkpt lat="45.83767" lon="4.77641">
        <ele>426.341</ele>
        <time>2015-08-15T14:24:13Z</time>
      </trkpt>
      <trkpt lat="45.83765" lon="4.77589">
        <ele>426.49</ele>
        <time>2015-08-15T14:24:26Z</time>
      </trkpt>
      <trkpt lat="45.83763" lon="4.77515">
        <ele>428.044</ele>
        <time>2015-08-15T14:24:43Z</time>
      </trkpt>
      <trkpt lat="45.83762" lon="4.77511">
        <ele>428.182</ele>
        <time>2015-08-15T14:24:44Z</time>
      </trkpt>
      <trkpt lat="45.83772" lon="4.77512">
        <ele>430.198</ele>
        <time>2015-08-15T14:24:51Z</time>
      </trkpt>
      <trkpt lat="45.83772" lon="4.77515">
        <ele>430.548</ele>
        <time>2015-08-15T14:24:52Z</time>
      </trkpt>
      <trkpt lat="45.83778" lon="4.77561">
        <ele>433.026</ele>
        <time>2015-08-15T14:25:08Z</time>
      </trkpt>
      <trkpt lat="45.83787" lon="4.77608">
        <ele>435.653</ele>
        <time>2015-08-15T14:25:25Z</time>
      </trkpt>
      <trkpt lat="45.83799" lon="4.77659">
        <ele>439.247</ele>
        <time>2015-08-15T14:25:46Z</time>
      </trkpt>
      <trkpt lat="45.83807" lon="4.77689">
        <ele>440.525</ele>
        <time>2015-08-15T14:25:58Z</time>
      </trkpt>
      <trkpt lat="45.83808" lon="4.77699">
        <ele>441.13</ele>
        <time>2015-08-15T14:26:02Z</time>
      </trkpt>
      <trkpt lat="45.8381" lon="4.77704">
        <ele>440.387</ele>
        <time>2015-08-15T14:26:05Z</time>
      </trkpt>
      <trkpt lat="45.83812" lon="4.77716">
        <ele>441.529</ele>
        <time>2015-08-15T14:26:10Z</time>
      </trkpt>
      <trkpt lat="45.83823" lon="4.77753">
        <ele>444.162</ele>
        <time>2015-08-15T14:26:26Z</time>
      </trkpt>
      <trkpt lat="45.83826" lon="4.7776">
        <ele>444.151</ele>
        <time>2015-08-15T14:26:29Z</time>
      </trkpt>
      <trkpt lat="45.83837" lon="4.77781">
        <ele>446.901</ele>
        <time>2015-08-15T14:26:40Z</time>
      </trkpt>
      <trkpt lat="45.83846" lon="4.77791">
        <ele>448.185</ele>
        <time>2015-08-15T14:26:46Z</time>
      </trkpt>
      <trkpt lat="45.83879" lon="4.77802">
        <ele>445.67</ele>
        <time>2015-08-15T14:27:05Z</time>
      </trkpt>
      <trkpt lat="45.83906" lon="4.77799">
        <ele>449.451</ele>
        <time>2015-08-15T14:27:21Z</time>
      </trkpt>
      <trkpt lat="45.83936" lon="4.77801">
        <ele>451.556</ele>
        <time>2015-08-15T14:27:38Z</time>
      </trkpt>
      <trkpt lat="45.83965" lon="4.77799">
        <ele>454.26</ele>
        <time>2015-08-15T14:27:54Z</time>
      </trkpt>
      <trkpt lat="45.84" lon="4.77801">
        <ele>457.899</ele>
        <time>2015-08-15T14:28:12Z</time>
      </trkpt>
      <trkpt lat="45.84022" lon="4.77806">
        <ele>459.274</ele>
        <time>2015-08-15T14:28:27Z</time>
      </trkpt>
      <trkpt lat="45.84027" lon="4.77802">
        <ele>459.718</ele>
        <time>2015-08-15T14:28:31Z</time>
      </trkpt>
      <trkpt lat="45.84045" lon="4.77794">
        <ele>463.976</ele>
        <time>2015-08-15T14:28:44Z</time>
      </trkpt>
      <trkpt lat="45.84062" lon="4.77789">
        <ele>471.028</ele>
        <time>2015-08-15T14:28:55Z</time>
      </trkpt>
      <trkpt lat="45.84067" lon="4.77783">
        <ele>473.901</ele>
        <time>2015-08-15T14:28:59Z</time>
      </trkpt>
      <trkpt lat="45.84077" lon="4.77778">
        <ele>477.354</ele>
        <time>2015-08-15T14:29:11Z</time>
      </trkpt>
      <trkpt lat="45.84078" lon="4.77782">
        <ele>477.253</ele>
        <time>2015-08-15T14:29:30Z</time>
      </trkpt>
      <trkpt lat="45.84082" lon="4.77785">
        <ele>476.834</ele>
        <time>2015-08-15T14:29:35Z</time>
      </trkpt>
      <trkpt lat="45.84087" lon="4.77786">
        <ele>477.021</ele>
        <time>2015-08-15T14:29:41Z</time>
      </trkpt>
      <trkpt lat="45.84107" lon="4.77787">
        <ele>478.662</ele>
        <time>2015-08-15T14:29:57Z</time>
      </trkpt>
      <trkpt lat="45.84122" lon="4.77786">
        <ele>481.148</ele>
        <time>2015-08-15T14:30:08Z</time>
      </trkpt>
      <trkpt lat="45.84125" lon="4.77788">
        <ele>480.629</ele>
        <time>2015-08-15T14:30:11Z</time>
      </trkpt>
      <trkpt lat="45.84129" lon="4.77789">
        <ele>481.091</ele>
        <time>2015-08-15T14:30:16Z</time>
      </trkpt>
      <trkpt lat="45.84134" lon="4.77786">
        <ele>481.749</ele>
        <time>2015-08-15T14:30:20Z</time>
      </trkpt>
      <trkpt lat="45.8414" lon="4.77783">
        <ele>481.571</ele>
        <time>2015-08-15T14:30:26Z</time>
      </trkpt>
      <trkpt lat="45.84143" lon="4.77784">
        <ele>481.191</ele>
        <time>2015-08-15T14:30:29Z</time>
      </trkpt>
      <trkpt lat="45.8415" lon="4.77776">
        <ele>480.548</ele>
        <time>2015-08-15T14:30:37Z</time>
      </trkpt>
      <trkpt lat="45.84152" lon="4.77772">
        <ele>480.41</ele>
        <time>2015-08-15T14:30:39Z</time>
      </trkpt>
      <trkpt lat="45.84154" lon="4.7777">
        <ele>481.557</ele>
        <time>2015-08-15T14:30:41Z</time>
      </trkpt>
      <trkpt lat="45.84167" lon="4.77765">
        <ele>485.208</ele>
        <time>2015-08-15T14:30:53Z</time>
      </trkpt>
      <trkpt lat="45.84169" lon="4.77765">
        <ele>485.352</ele>
        <time>2015-08-15T14:30:55Z</time>
      </trkpt>
      <trkpt lat="45.8419" lon="4.77759">
        <ele>487.594</ele>
        <time>2015-08-15T14:31:14Z</time>
      </trkpt>
      <trkpt lat="45.84195" lon="4.7776">
        <ele>491.045</ele>
        <time>2015-08-15T14:31:18Z</time>
      </trkpt>
      <trkpt lat="45.84211" lon="4.77756">
        <ele>498.134</ele>
        <time>2015-08-15T14:31:31Z</time>
      </trkpt>
      <trkpt lat="45.84214" lon="4.77756">
        <ele>498.642</ele>
        <time>2015-08-15T14:31:33Z</time>
      </trkpt>
      <trkpt lat="45.8423" lon="4.77757">
        <ele>499.379</ele>
        <time>2015-08-15T14:31:43Z</time>
      </trkpt>
      <trkpt lat="45.84234" lon="4.77753">
        <ele>499.018</ele>
        <time>2015-08-15T14:31:49Z</time>
      </trkpt>
      <trkpt lat="45.84234" lon="4.77753">
        <ele>499.406</ele>
        <time>2015-08-15T14:32:08Z</time>
      </trkpt>
      <trkpt lat="45.84232" lon="4.77761">
        <ele>500.191</ele>
        <time>2015-08-15T14:32:12Z</time>
      </trkpt>
      <trkpt lat="45.84233" lon="4.77758">
        <ele>498.592</ele>
        <time>2015-08-15T14:32:24Z</time>
      </trkpt>
      <trkpt lat="45.84234" lon="4.77756">
        <ele>498.262</ele>
        <time>2015-08-15T14:32:43Z</time>
      </trkpt>
      <trkpt lat="45.84237" lon="4.7775">
        <ele>499.083</ele>
        <time>2015-08-15T14:32:57Z</time>
      </trkpt>
      <trkpt lat="45.84239" lon="4.77746">
        <ele>499.451</ele>
        <time>2015-08-15T14:33:09Z</time>
      </trkpt>
      <trkpt lat="45.84241" lon="4.77748">
        <ele>500.352</ele>
        <time>2015-08-15T14:36:48Z</time>
      </trkpt>
      <trkpt lat="45.84245" lon="4.77747">
        <ele>500.839</ele>
        <time>2015-08-15T14:36:52Z</time>
      </trkpt>
      <trkpt lat="45.84254" lon="4.77743">
        <ele>502.762</ele>
        <time>2015-08-15T14:37:00Z</time>
      </trkpt>
      <trkpt lat="45.84275" lon="4.77735">
        <ele>506.4</ele>
        <time>2015-08-15T14:37:17Z</time>
      </trkpt>
      <trkpt lat="45.84291" lon="4.77735">
        <ele>509.061</ele>
        <time>2015-08-15T14:37:29Z</time>
      </trkpt>
      <trkpt lat="45.84313" lon="4.77724">
        <ele>511.584</ele>
        <time>2015-08-15T14:37:47Z</time>
      </trkpt>
      <trkpt lat="45.84319" lon="4.77722">
        <ele>511.48</ele>
        <time>2015-08-15T14:37:52Z</time>
      </trkpt>
      <trkpt lat="45.84323" lon="4.7772">
        <ele>512.743</ele>
        <time>2015-08-15T14:37:55Z</time>
      </trkpt>
      <trkpt lat="45.84328" lon="4.77717">
        <ele>513.73</ele>
        <time>2015-08-15T14:37:59Z</time>
      </trkpt>
      <trkpt lat="45.84343" lon="4.77713">
        <ele>515.082</ele>
        <time>2015-08-15T14:38:10Z</time>
      </trkpt>
      <trkpt lat="45.84349" lon="4.77709">
        <ele>517.369</ele>
        <time>2015-08-15T14:38:16Z</time>
      </trkpt>
      <trkpt lat="45.84351" lon="4.77707">
        <ele>517.106</ele>
        <time>2015-08-15T14:38:18Z</time>
      </trkpt>
      <trkpt lat="45.84364" lon="4.77701">
        <ele>517.916</ele>
        <time>2015-08-15T14:38:29Z</time>
      </trkpt>
      <trkpt lat="45.84379" lon="4.77696">
        <ele>520.908</ele>
        <time>2015-08-15T14:38:42Z</time>
      </trkpt>
      <trkpt lat="45.84399" lon="4.77685">
        <ele>523.877</ele>
        <time>2015-08-15T14:38:58Z</time>
      </trkpt>
      <trkpt lat="45.8441" lon="4.77681">
        <ele>525.875</ele>
        <time>2015-08-15T14:39:07Z</time>
      </trkpt>
      <trkpt lat="45.8442" lon="4.77676">
        <ele>528.858</ele>
        <time>2015-08-15T14:39:15Z</time>
      </trkpt>
      <trkpt lat="45.84434" lon="4.77666">
        <ele>534.772</ele>
        <time>2015-08-15T14:39:28Z</time>
      </trkpt>
      <trkpt lat="45.84453" lon="4.77659">
        <ele>536.021</ele>
        <time>2015-08-15T14:39:43Z</time>
      </trkpt>
      <trkpt lat="45.84458" lon="4.77656">
        <ele>537.021</ele>
        <time>2015-08-15T14:39:47Z</time>
      </trkpt>
      <trkpt lat="45.84462" lon="4.77656">
        <ele>537.249</ele>
        <time>2015-08-15T14:39:50Z</time>
      </trkpt>
      <trkpt lat="45.8448" lon="4.77646">
        <ele>539.135</ele>
        <time>2015-08-15T14:40:06Z</time>
      </trkpt>
      <trkpt lat="45.8449" lon="4.77638">
        <ele>539.891</ele>
        <time>2015-08-15T14:40:15Z</time>
      </trkpt>
      <trkpt lat="45.84504" lon="4.77627">
        <ele>542.418</ele>
        <time>2015-08-15T14:40:28Z</time>
      </trkpt>
      <trkpt lat="45.84523" lon="4.7762">
        <ele>543.628</ele>
        <time>2015-08-15T14:40:44Z</time>
      </trkpt>
      <trkpt lat="45.84532" lon="4.77614">
        <ele>543.426</ele>
        <time>2015-08-15T14:40:57Z</time>
      </trkpt>
      <trkpt lat="45.84541" lon="4.77605">
        <ele>544.331</ele>
        <time>2015-08-15T14:41:11Z</time>
      </trkpt>
      <trkpt lat="45.84546" lon="4.77603">
        <ele>544.037</ele>
        <time>2015-08-15T14:41:14Z</time>
      </trkpt>
      <trkpt lat="45.8456" lon="4.77595">
        <ele>544.014</ele>
        <time>2015-08-15T14:41:32Z</time>
      </trkpt>
      <trkpt lat="45.84569" lon="4.7759">
        <ele>544.588</ele>
        <time>2015-08-15T14:41:42Z</time>
      </trkpt>
      <trkpt lat="45.8459" lon="4.77579">
        <ele>545.837</ele>
        <time>2015-08-15T14:41:58Z</time>
      </trkpt>
      <trkpt lat="45.84597" lon="4.77577">
        <ele>546.793</ele>
        <time>2015-08-15T14:42:03Z</time>
      </trkpt>
      <trkpt lat="45.846" lon="4.77575">
        <ele>547.07</ele>
        <time>2015-08-15T14:42:06Z</time>
      </trkpt>
      <trkpt lat="45.84608" lon="4.77574">
        <ele>547.896</ele>
        <time>2015-08-15T14:42:11Z</time>
      </trkpt>
      <trkpt lat="45.84611" lon="4.77574">
        <ele>548.101</ele>
        <time>2015-08-15T14:42:13Z</time>
      </trkpt>
      <trkpt lat="45.84616" lon="4.77571">
        <ele>548.907</ele>
        <time>2015-08-15T14:42:17Z</time>
      </trkpt>
      <trkpt lat="45.84626" lon="4.77568">
        <ele>550.233</ele>
        <time>2015-08-15T14:42:24Z</time>
      </trkpt>
      <trkpt lat="45.84658" lon="4.77564">
        <ele>552.358</ele>
        <time>2015-08-15T14:42:44Z</time>
      </trkpt>
      <trkpt lat="45.84692" lon="4.77579">
        <ele>552.468</ele>
        <time>2015-08-15T14:43:02Z</time>
      </trkpt>
      <trkpt lat="45.84708" lon="4.77606">
        <ele>552.958</ele>
        <time>2015-08-15T14:43:16Z</time>
      </trkpt>
      <trkpt lat="45.84714" lon="4.77619">
        <ele>553.54</ele>
        <time>2015-08-15T14:43:22Z</time>
      </trkpt>
      <trkpt lat="45.84726" lon="4.77653">
        <ele>556.035</ele>
        <time>2015-08-15T14:43:39Z</time>
      </trkpt>
      <trkpt lat="45.84728" lon="4.77661">
        <ele>555.791</ele>
        <time>2015-08-15T14:43:43Z</time>
      </trkpt>
      <trkpt lat="45.84729" lon="4.77667">
        <ele>556.028</ele>
        <time>2015-08-15T14:43:46Z</time>
      </trkpt>
      <trkpt lat="45.84731" lon="4.77686">
        <ele>556.992</ele>
        <time>2015-08-15T14:43:54Z</time>
      </trkpt>
      <trkpt lat="45.8473" lon="4.77694">
        <ele>557.159</ele>
        <time>2015-08-15T14:43:58Z</time>
      </trkpt>
      <trkpt lat="45.84723" lon="4.77729">
        <ele>559.38</ele>
        <time>2015-08-15T14:44:14Z</time>
      </trkpt>
      <trkpt lat="45.84708" lon="4.77764">
        <ele>562.148</ele>
        <time>2015-08-15T14:44:32Z</time>
      </trkpt>
      <trkpt lat="45.84695" lon="4.77798">
        <ele>564.614</ele>
        <time>2015-08-15T14:44:49Z</time>
      </trkpt>
      <trkpt lat="45.84679" lon="4.77838">
        <ele>567.501</ele>
        <time>2015-08-15T14:45:09Z</time>
      </trkpt>
      <trkpt lat="45.84677" lon="4.77845">
        <ele>568.032</ele>
        <time>2015-08-15T14:45:12Z</time>
      </trkpt>
      <trkpt lat="45.8465" lon="4.77877">
        <ele>569.354</ele>
        <time>2015-08-15T14:45:33Z</time>
      </trkpt>
      <trkpt lat="45.84642" lon="4.77914">
        <ele>571.273</ele>
        <time>2015-08-15T14:45:50Z</time>
      </trkpt>
      <trkpt lat="45.84656" lon="4.77926">
        <ele>571.555</ele>
        <time>2015-08-15T14:45:59Z</time>
      </trkpt>
      <trkpt lat="45.84666" lon="4.77923">
        <ele>571.942</ele>
        <time>2015-08-15T14:46:05Z</time>
      </trkpt>
      <trkpt lat="45.84691" lon="4.77883">
        <ele>574.448</ele>
        <time>2015-08-15T14:46:26Z</time>
      </trkpt>
      <trkpt lat="45.84694" lon="4.77877">
        <ele>574.886</ele>
        <time>2015-08-15T14:46:29Z</time>
      </trkpt>
      <trkpt lat="45.84715" lon="4.7783">
        <ele>576.466</ele>
        <time>2015-08-15T14:46:51Z</time>
      </trkpt>
      <trkpt lat="45.8473" lon="4.77832">
        <ele>576.761</ele>
        <time>2015-08-15T14:46:59Z</time>
      </trkpt>
      <trkpt lat="45.84733" lon="4.77872">
        <ele>579.004</ele>
        <time>2015-08-15T14:47:15Z</time>
      </trkpt>
      <trkpt lat="45.84712" lon="4.77912">
        <ele>582.1</ele>
        <time>2015-08-15T14:47:36Z</time>
      </trkpt>
      <trkpt lat="45.8469" lon="4.77961">
        <ele>586.048</ele>
        <time>2015-08-15T14:48:00Z</time>
      </trkpt>
      <trkpt lat="45.84681" lon="4.78002">
        <ele>588.053</ele>
        <time>2015-08-15T14:48:19Z</time>
      </trkpt>
      <trkpt lat="45.84694" lon="4.78028">
        <ele>587.957</ele>
        <time>2015-08-15T14:48:34Z</time>
      </trkpt>
      <trkpt lat="45.84708" lon="4.78027">
        <ele>588.023</ele>
        <time>2015-08-15T14:48:43Z</time>
      </trkpt>
      <trkpt lat="45.84715" lon="4.78029">
        <ele>588.097</ele>
        <time>2015-08-15T14:48:48Z</time>
      </trkpt>
      <trkpt lat="45.84736" lon="4.78028">
        <ele>588.674</ele>
        <time>2015-08-15T14:49:02Z</time>
      </trkpt>
      <trkpt lat="45.84752" lon="4.78027">
        <ele>590.599</ele>
        <time>2015-08-15T14:49:12Z</time>
      </trkpt>
      <trkpt lat="45.84759" lon="4.78027">
        <ele>590.884</ele>
        <time>2015-08-15T14:49:16Z</time>
      </trkpt>
      <trkpt lat="45.84783" lon="4.78026">
        <ele>594.7</ele>
        <time>2015-08-15T14:49:29Z</time>
      </trkpt>
      <trkpt lat="45.84804" lon="4.78027">
        <ele>596.719</ele>
        <time>2015-08-15T14:49:41Z</time>
      </trkpt>
      <trkpt lat="45.8484" lon="4.78042">
        <ele>598.655</ele>
        <time>2015-08-15T14:50:01Z</time>
      </trkpt>
      <trkpt lat="45.8488" lon="4.7807">
        <ele>602.18</ele>
        <time>2015-08-15T14:50:26Z</time>
      </trkpt>
      <trkpt lat="45.84888" lon="4.78076">
        <ele>602.955</ele>
        <time>2015-08-15T14:50:39Z</time>
      </trkpt>
      <trkpt lat="45.8489" lon="4.78077">
        <ele>603.253</ele>
        <time>2015-08-15T14:50:49Z</time>
      </trkpt>
      <trkpt lat="45.84908" lon="4.78093">
        <ele>603.551</ele>
        <time>2015-08-15T14:51:10Z</time>
      </trkpt>
      <trkpt lat="45.84909" lon="4.78096">
        <ele>604.518</ele>
        <time>2015-08-15T14:51:33Z</time>
      </trkpt>
      <trkpt lat="45.84916" lon="4.78103">
        <ele>604.082</ele>
        <time>2015-08-15T14:51:48Z</time>
      </trkpt>
      <trkpt lat="45.84917" lon="4.78103">
        <ele>604.216</ele>
        <time>2015-08-15T14:56:11Z</time>
      </trkpt>
      <trkpt lat="45.84917" lon="4.78102">
        <ele>603.878</ele>
        <time>2015-08-15T15:00:48Z</time>
      </trkpt>
      <trkpt lat="45.84915" lon="4.78092">
        <ele>604.171</ele>
        <time>2015-08-15T15:00:58Z</time>
      </trkpt>
      <trkpt lat="45.84913" lon="4.78091">
        <ele>604.297</ele>
        <time>2015-08-15T15:01:00Z</time>
      </trkpt>
      <trkpt lat="45.84901" lon="4.78082">
        <ele>602.925</ele>
        <time>2015-08-15T15:01:11Z</time>
      </trkpt>
      <trkpt lat="45.84891" lon="4.78073">
        <ele>602.332</ele>
        <time>2015-08-15T15:01:17Z</time>
      </trkpt>
      <trkpt lat="45.84851" lon="4.78044">
        <ele>598.509</ele>
        <time>2015-08-15T15:01:30Z</time>
      </trkpt>
      <trkpt lat="45.84813" lon="4.78024">
        <ele>595.187</ele>
        <time>2015-08-15T15:01:37Z</time>
      </trkpt>
      <trkpt lat="45.84794" lon="4.7802">
        <ele>593.919</ele>
        <time>2015-08-15T15:01:40Z</time>
      </trkpt>
      <trkpt lat="45.84741" lon="4.78025">
        <ele>592.383</ele>
        <time>2015-08-15T15:01:47Z</time>
      </trkpt>
      <trkpt lat="45.847" lon="4.78025">
        <ele>590.053</ele>
        <time>2015-08-15T15:01:52Z</time>
      </trkpt>
      <trkpt lat="45.8468" lon="4.77983">
        <ele>589.182</ele>
        <time>2015-08-15T15:01:58Z</time>
      </trkpt>
      <trkpt lat="45.8469" lon="4.77955">
        <ele>586.824</ele>
        <time>2015-08-15T15:02:01Z</time>
      </trkpt>
      <trkpt lat="45.8473" lon="4.77873">
        <ele>581.599</ele>
        <time>2015-08-15T15:02:09Z</time>
      </trkpt>
      <trkpt lat="45.84722" lon="4.77825">
        <ele>579.166</ele>
        <time>2015-08-15T15:02:14Z</time>
      </trkpt>
      <trkpt lat="45.84702" lon="4.77845">
        <ele>577.503</ele>
        <time>2015-08-15T15:02:17Z</time>
      </trkpt>
      <trkpt lat="45.84689" lon="4.7788">
        <ele>575.097</ele>
        <time>2015-08-15T15:02:20Z</time>
      </trkpt>
      <trkpt lat="45.84671" lon="4.77914">
        <ele>572.891</ele>
        <time>2015-08-15T15:02:23Z</time>
      </trkpt>
      <trkpt lat="45.84643" lon="4.77897">
        <ele>570.242</ele>
        <time>2015-08-15T15:02:28Z</time>
      </trkpt>
      <trkpt lat="45.84659" lon="4.77871">
        <ele>568.435</ele>
        <time>2015-08-15T15:02:31Z</time>
      </trkpt>
      <trkpt lat="45.84672" lon="4.77855">
        <ele>567.324</ele>
        <time>2015-08-15T15:02:33Z</time>
      </trkpt>
      <trkpt lat="45.84697" lon="4.778">
        <ele>563.686</ele>
        <time>2015-08-15T15:02:38Z</time>
      </trkpt>
      <trkpt lat="45.84725" lon="4.77723">
        <ele>559.505</ele>
        <time>2015-08-15T15:02:44Z</time>
      </trkpt>
      <trkpt lat="45.84732" lon="4.77679">
        <ele>557.164</ele>
        <time>2015-08-15T15:02:49Z</time>
      </trkpt>
      <trkpt lat="45.84721" lon="4.77635">
        <ele>554.607</ele>
        <time>2015-08-15T15:03:01Z</time>
      </trkpt>
      <trkpt lat="45.84697" lon="4.77576">
        <ele>551.905</ele>
        <time>2015-08-15T15:03:10Z</time>
      </trkpt>
      <trkpt lat="45.84675" lon="4.7756">
        <ele>551.315</ele>
        <time>2015-08-15T15:03:14Z</time>
      </trkpt>
      <trkpt lat="45.84656" lon="4.77557">
        <ele>550.374</ele>
        <time>2015-08-15T15:03:17Z</time>
      </trkpt>
      <trkpt lat="45.84557" lon="4.7759">
        <ele>542.893</ele>
        <time>2015-08-15T15:03:29Z</time>
      </trkpt>
      <trkpt lat="45.84531" lon="4.77612">
        <ele>539.938</ele>
        <time>2015-08-15T15:03:33Z</time>
      </trkpt>
      <trkpt lat="45.8451" lon="4.7762">
        <ele>536.858</ele>
        <time>2015-08-15T15:03:37Z</time>
      </trkpt>
      <trkpt lat="45.8447" lon="4.77641">
        <ele>531.366</ele>
        <time>2015-08-15T15:03:44Z</time>
      </trkpt>
      <trkpt lat="45.84459" lon="4.77647">
        <ele>529.905</ele>
        <time>2015-08-15T15:03:46Z</time>
      </trkpt>
      <trkpt lat="45.84438" lon="4.77654">
        <ele>528.14</ele>
        <time>2015-08-15T15:03:49Z</time>
      </trkpt>
      <trkpt lat="45.84432" lon="4.77661">
        <ele>525.95</ele>
        <time>2015-08-15T15:03:56Z</time>
      </trkpt>
      <trkpt lat="45.84433" lon="4.77663">
        <ele>525.212</ele>
        <time>2015-08-15T15:04:07Z</time>
      </trkpt>
      <trkpt lat="45.84436" lon="4.77659">
        <ele>523.754</ele>
        <time>2015-08-15T15:04:21Z</time>
      </trkpt>
      <trkpt lat="45.84437" lon="4.77664">
        <ele>522.764</ele>
        <time>2015-08-15T15:04:40Z</time>
      </trkpt>
      <trkpt lat="45.84439" lon="4.77662">
        <ele>522.536</ele>
        <time>2015-08-15T15:04:45Z</time>
      </trkpt>
      <trkpt lat="45.84443" lon="4.77658">
        <ele>521.352</ele>
        <time>2015-08-15T15:04:52Z</time>
      </trkpt>
      <trkpt lat="45.84433" lon="4.77662">
        <ele>526.73</ele>
        <time>2015-08-15T15:05:05Z</time>
      </trkpt>
      <trkpt lat="45.84426" lon="4.77669">
        <ele>530.136</ele>
        <time>2015-08-15T15:05:29Z</time>
      </trkpt>
      <trkpt lat="45.84425" lon="4.77673">
        <ele>528.354</ele>
        <time>2015-08-15T15:06:39Z</time>
      </trkpt>
      <trkpt lat="45.84425" lon="4.77673">
        <ele>528.38</ele>
        <time>2015-08-15T15:06:53Z</time>
      </trkpt>
      <trkpt lat="45.84403" lon="4.77679">
        <ele>523.333</ele>
        <time>2015-08-15T15:07:01Z</time>
      </trkpt>
      <trkpt lat="45.84368" lon="4.77691">
        <ele>521.192</ele>
        <time>2015-08-15T15:07:06Z</time>
      </trkpt>
      <trkpt lat="45.84356" lon="4.77697">
        <ele>518.32</ele>
        <time>2015-08-15T15:07:09Z</time>
      </trkpt>
      <trkpt lat="45.84344" lon="4.77707">
        <ele>517.6</ele>
        <time>2015-08-15T15:07:12Z</time>
      </trkpt>
      <trkpt lat="45.84287" lon="4.77724">
        <ele>511.066</ele>
        <time>2015-08-15T15:07:21Z</time>
      </trkpt>
      <trkpt lat="45.84252" lon="4.77735">
        <ele>506.312</ele>
        <time>2015-08-15T15:07:27Z</time>
      </trkpt>
      <trkpt lat="45.84238" lon="4.77745">
        <ele>505.368</ele>
        <time>2015-08-15T15:07:35Z</time>
      </trkpt>
      <trkpt lat="45.84218" lon="4.7775">
        <ele>501.702</ele>
        <time>2015-08-15T15:07:44Z</time>
      </trkpt>
      <trkpt lat="45.84191" lon="4.77753">
        <ele>499.033</ele>
        <time>2015-08-15T15:07:48Z</time>
      </trkpt>
      <trkpt lat="45.84168" lon="4.77757">
        <ele>496.659</ele>
        <time>2015-08-15T15:07:53Z</time>
      </trkpt>
      <trkpt lat="45.84137" lon="4.77777">
        <ele>492.393</ele>
        <time>2015-08-15T15:07:59Z</time>
      </trkpt>
      <trkpt lat="45.84132" lon="4.77778">
        <ele>491.832</ele>
        <time>2015-08-15T15:08:00Z</time>
      </trkpt>
      <trkpt lat="45.84121" lon="4.77778">
        <ele>490.65</ele>
        <time>2015-08-15T15:08:02Z</time>
      </trkpt>
      <trkpt lat="45.84089" lon="4.77779">
        <ele>487.598</ele>
        <time>2015-08-15T15:08:07Z</time>
      </trkpt>
      <trkpt lat="45.8408" lon="4.77778">
        <ele>488.596</ele>
        <time>2015-08-15T15:08:10Z</time>
      </trkpt>
      <trkpt lat="45.84045" lon="4.77794">
        <ele>479.787</ele>
        <time>2015-08-15T15:08:17Z</time>
      </trkpt>
      <trkpt lat="45.84031" lon="4.77804">
        <ele>477.61</ele>
        <time>2015-08-15T15:08:19Z</time>
      </trkpt>
      <trkpt lat="45.84021" lon="4.77804">
        <ele>475.557</ele>
        <time>2015-08-15T15:08:26Z</time>
      </trkpt>
      <trkpt lat="45.84021" lon="4.77804">
        <ele>475.47</ele>
        <time>2015-08-15T15:08:36Z</time>
      </trkpt>
      <trkpt lat="45.83981" lon="4.77802">
        <ele>469.778</ele>
        <time>2015-08-15T15:08:44Z</time>
      </trkpt>
      <trkpt lat="45.83885" lon="4.77803">
        <ele>458.874</ele>
        <time>2015-08-15T15:08:55Z</time>
      </trkpt>
      <trkpt lat="45.83826" lon="4.77761">
        <ele>452.875</ele>
        <time>2015-08-15T15:09:02Z</time>
      </trkpt>
      <trkpt lat="45.83817" lon="4.77733">
        <ele>451.079</ele>
        <time>2015-08-15T15:09:04Z</time>
      </trkpt>
      <trkpt lat="45.83785" lon="4.77601">
        <ele>440.826</ele>
        <time>2015-08-15T15:09:12Z</time>
      </trkpt>
      <trkpt lat="45.83772" lon="4.77507">
        <ele>435.14</ele>
        <time>2015-08-15T15:09:18Z</time>
      </trkpt>
      <trkpt lat="45.8376" lon="4.77501">
        <ele>433.281</ele>
        <time>2015-08-15T15:09:24Z</time>
      </trkpt>
      <trkpt lat="45.83763" lon="4.77507">
        <ele>432.315</ele>
        <time>2015-08-15T15:09:28Z</time>
      </trkpt>
      <trkpt lat="45.83764" lon="4.77536">
        <ele>431.744</ele>
        <time>2015-08-15T15:09:35Z</time>
      </trkpt>
      <trkpt lat="45.83765" lon="4.77644">
        <ele>431.059</ele>
        <time>2015-08-15T15:09:52Z</time>
      </trkpt>
      <trkpt lat="45.83763" lon="4.77664">
        <ele>431.331</ele>
        <time>2015-08-15T15:09:55Z</time>
      </trkpt>
      <trkpt lat="45.83763" lon="4.77677">
        <ele>431.78</ele>
        <time>2015-08-15T15:09:57Z</time>
      </trkpt>
      <trkpt lat="45.83779" lon="4.77781">
        <ele>432.521</ele>
        <time>2015-08-15T15:10:14Z</time>
      </trkpt>
      <trkpt lat="45.83782" lon="4.77797">
        <ele>433.371</ele>
        <time>2015-08-15T15:10:17Z</time>
      </trkpt>
      <trkpt lat="45.83789" lon="4.77824">
        <ele>433.928</ele>
        <time>2015-08-15T15:10:22Z</time>
      </trkpt>
      <trkpt lat="45.83773" lon="4.77853">
        <ele>433.416</ele>
        <time>2015-08-15T15:10:30Z</time>
      </trkpt>
      <trkpt lat="45.83716" lon="4.77837">
        <ele>431.982</ele>
        <time>2015-08-15T15:10:45Z</time>
      </trkpt>
      <trkpt lat="45.83673" lon="4.77825">
        <ele>432.514</ele>
        <time>2015-08-15T15:11:00Z</time>
      </trkpt>
      <trkpt lat="45.83651" lon="4.77821">
        <ele>433.139</ele>
        <time>2015-08-15T15:11:11Z</time>
      </trkpt>
      <trkpt lat="45.83664" lon="4.77811">
        <ele>430.585</ele>
        <time>2015-08-15T15:11:18Z</time>
      </trkpt>
      <trkpt lat="45.8367" lon="4.77778">
        <ele>427.908</ele>
        <time>2015-08-15T15:11:23Z</time>
      </trkpt>
      <trkpt lat="45.83669" lon="4.77758">
        <ele>427.858</ele>
        <time>2015-08-15T15:11:30Z</time>
      </trkpt>
      <trkpt lat="45.83673" lon="4.77732">
        <ele>423.575</ele>
        <time>2015-08-15T15:11:34Z</time>
      </trkpt>
      <trkpt lat="45.8367" lon="4.77717">
        <ele>422.418</ele>
        <time>2015-08-15T15:11:36Z</time>
      </trkpt>
      <trkpt lat="45.8364" lon="4.77663">
        <ele>418.472</ele>
        <time>2015-08-15T15:11:43Z</time>
      </trkpt>
      <trkpt lat="45.83615" lon="4.77645">
        <ele>419.683</ele>
        <time>2015-08-15T15:11:51Z</time>
      </trkpt>
      <trkpt lat="45.83604" lon="4.77622">
        <ele>419.2</ele>
        <time>2015-08-15T15:12:00Z</time>
      </trkpt>
      <trkpt lat="45.83586" lon="4.7759">
        <ele>418.606</ele>
        <time>2015-08-15T15:12:05Z</time>
      </trkpt>
      <trkpt lat="45.83558" lon="4.77558">
        <ele>418.056</ele>
        <time>2015-08-15T15:12:10Z</time>
      </trkpt>
      <trkpt lat="45.83541" lon="4.77545">
        <ele>416.996</ele>
        <time>2015-08-15T15:12:13Z</time>
      </trkpt>
      <trkpt lat="45.83531" lon="4.7754">
        <ele>416.857</ele>
        <time>2015-08-15T15:12:15Z</time>
      </trkpt>
      <trkpt lat="45.83514" lon="4.77518">
        <ele>416.551</ele>
        <time>2015-08-15T15:12:19Z</time>
      </trkpt>
      <trkpt lat="45.83508" lon="4.77481">
        <ele>414.041</ele>
        <time>2015-08-15T15:12:25Z</time>
      </trkpt>
      <trkpt lat="45.83523" lon="4.77468">
        <ele>411.225</ele>
        <time>2015-08-15T15:12:30Z</time>
      </trkpt>
      <trkpt lat="45.8354" lon="4.7747">
        <ele>409.706</ele>
        <time>2015-08-15T15:12:36Z</time>
      </trkpt>
      <trkpt lat="45.8354" lon="4.77461">
        <ele>408.069</ele>
        <time>2015-08-15T15:12:41Z</time>
      </trkpt>
      <trkpt lat="45.83527" lon="4.77443">
        <ele>405.932</ele>
        <time>2015-08-15T15:12:47Z</time>
      </trkpt>
      <trkpt lat="45.83524" lon="4.77436">
        <ele>406.098</ele>
        <time>2015-08-15T15:12:50Z</time>
      </trkpt>
      <trkpt lat="45.83521" lon="4.7743">
        <ele>405.165</ele>
        <time>2015-08-15T15:13:01Z</time>
      </trkpt>
      <trkpt lat="45.83522" lon="4.77422">
        <ele>403.787</ele>
        <time>2015-08-15T15:13:45Z</time>
      </trkpt>
      <trkpt lat="45.83522" lon="4.77417">
        <ele>402.427</ele>
        <time>2015-08-15T15:13:53Z</time>
      </trkpt>
      <trkpt lat="45.8352" lon="4.7741">
        <ele>399.252</ele>
        <time>2015-08-15T15:14:06Z</time>
      </trkpt>
      <trkpt lat="45.83503" lon="4.77378">
        <ele>398.613</ele>
        <time>2015-08-15T15:14:16Z</time>
      </trkpt>
      <trkpt lat="45.83494" lon="4.77367">
        <ele>397.334</ele>
        <time>2015-08-15T15:14:25Z</time>
      </trkpt>
      <trkpt lat="45.83484" lon="4.77351">
        <ele>393.297</ele>
        <time>2015-08-15T15:14:41Z</time>
      </trkpt>
      <trkpt lat="45.8348" lon="4.77338">
        <ele>389.387</ele>
        <time>2015-08-15T15:15:00Z</time>
      </trkpt>
      <trkpt lat="45.83481" lon="4.77329">
        <ele>385.348</ele>
        <time>2015-08-15T15:15:10Z</time>
      </trkpt>
      <trkpt lat="45.83496" lon="4.7734">
        <ele>383.175</ele>
        <time>2015-08-15T15:15:22Z</time>
      </trkpt>
      <trkpt lat="45.83496" lon="4.77331">
        <ele>381.052</ele>
        <time>2015-08-15T15:15:28Z</time>
      </trkpt>
      <trkpt lat="45.83462" lon="4.77298">
        <ele>380.073</ele>
        <time>2015-08-15T15:15:44Z</time>
      </trkpt>
      <trkpt lat="45.83459" lon="4.77293">
        <ele>380.974</ele>
        <time>2015-08-15T15:15:49Z</time>
      </trkpt>
      <trkpt lat="45.83454" lon="4.7729">
        <ele>380.182</ele>
        <time>2015-08-15T15:15:57Z</time>
      </trkpt>
      <trkpt lat="45.83445" lon="4.77289">
        <ele>380.788</ele>
        <time>2015-08-15T15:16:04Z</time>
      </trkpt>
      <trkpt lat="45.83422" lon="4.77291">
        <ele>378.919</ele>
        <time>2015-08-15T15:16:10Z</time>
      </trkpt>
      <trkpt lat="45.83394" lon="4.77285">
        <ele>377.181</ele>
        <time>2015-08-15T15:16:15Z</time>
      </trkpt>
      <trkpt lat="45.83359" lon="4.77274">
        <ele>374.793</ele>
        <time>2015-08-15T15:16:20Z</time>
      </trkpt>
      <trkpt lat="45.83321" lon="4.77311">
        <ele>371.983</ele>
        <time>2015-08-15T15:16:26Z</time>
      </trkpt>
      <trkpt lat="45.83319" lon="4.77322">
        <ele>371.488</ele>
        <time>2015-08-15T15:16:27Z</time>
      </trkpt>
      <trkpt lat="45.83311" lon="4.77364">
        <ele>372.136</ele>
        <time>2015-08-15T15:16:31Z</time>
      </trkpt>
      <trkpt lat="45.83301" lon="4.77386">
        <ele>374.247</ele>
        <time>2015-08-15T15:16:35Z</time>
      </trkpt>
      <trkpt lat="45.83278" lon="4.77417">
        <ele>377.83</ele>
        <time>2015-08-15T15:16:47Z</time>
      </trkpt>
      <trkpt lat="45.83265" lon="4.77451">
        <ele>380.658</ele>
        <time>2015-08-15T15:16:58Z</time>
      </trkpt>
      <trkpt lat="45.83238" lon="4.77524">
        <ele>384.534</ele>
        <time>2015-08-15T15:17:19Z</time>
      </trkpt>
      <trkpt lat="45.83213" lon="4.77567">
        <ele>387.731</ele>
        <time>2015-08-15T15:17:36Z</time>
      </trkpt>
      <trkpt lat="45.83212" lon="4.77568">
        <ele>387.338</ele>
        <time>2015-08-15T15:17:37Z</time>
      </trkpt>
      <trkpt lat="45.83206" lon="4.77569">
        <ele>387.534</ele>
        <time>2015-08-15T15:17:40Z</time>
      </trkpt>
      <trkpt lat="45.83175" lon="4.7758">
        <ele>388.366</ele>
        <time>2015-08-15T15:17:56Z</time>
      </trkpt>
      <trkpt lat="45.83155" lon="4.7761">
        <ele>390.681</ele>
        <time>2015-08-15T15:18:11Z</time>
      </trkpt>
      <trkpt lat="45.83149" lon="4.77652">
        <ele>393.23</ele>
        <time>2015-08-15T15:18:28Z</time>
      </trkpt>
      <trkpt lat="45.83133" lon="4.77693">
        <ele>394.982</ele>
        <time>2015-08-15T15:18:47Z</time>
      </trkpt>
      <trkpt lat="45.83099" lon="4.7772">
        <ele>397.014</ele>
        <time>2015-08-15T15:19:06Z</time>
      </trkpt>
      <trkpt lat="45.83097" lon="4.77723">
        <ele>397.467</ele>
        <time>2015-08-15T15:19:08Z</time>
      </trkpt>
      <trkpt lat="45.83096" lon="4.77724">
        <ele>397.92</ele>
        <time>2015-08-15T15:19:10Z</time>
      </trkpt>
      <trkpt lat="45.83099" lon="4.77714">
        <ele>397.945</ele>
        <time>2015-08-15T15:19:17Z</time>
      </trkpt>
      <trkpt lat="45.83097" lon="4.7771">
        <ele>398.573</ele>
        <time>2015-08-15T15:19:29Z</time>
      </trkpt>
      <trkpt lat="45.83096" lon="4.77712">
        <ele>397.82</ele>
        <time>2015-08-15T15:19:44Z</time>
      </trkpt>
      <trkpt lat="45.83068" lon="4.77715">
        <ele>396.079</ele>
        <time>2015-08-15T15:19:54Z</time>
      </trkpt>
      <trkpt lat="45.82993" lon="4.77734">
        <ele>387.932</ele>
        <time>2015-08-15T15:20:06Z</time>
      </trkpt>
      <trkpt lat="45.82982" lon="4.77738">
        <ele>386.385</ele>
        <time>2015-08-15T15:20:08Z</time>
      </trkpt>
      <trkpt lat="45.82918" lon="4.77724">
        <ele>379.051</ele>
        <time>2015-08-15T15:20:18Z</time>
      </trkpt>
      <trkpt lat="45.82882" lon="4.77702">
        <ele>375.561</ele>
        <time>2015-08-15T15:20:24Z</time>
      </trkpt>
      <trkpt lat="45.82868" lon="4.77684">
        <ele>373.481</ele>
        <time>2015-08-15T15:20:28Z</time>
      </trkpt>
      <trkpt lat="45.82864" lon="4.77672">
        <ele>371.877</ele>
        <time>2015-08-15T15:20:30Z</time>
      </trkpt>
      <trkpt lat="45.82846" lon="4.77673">
        <ele>369.882</ele>
        <time>2015-08-15T15:20:36Z</time>
      </trkpt>
      <trkpt lat="45.8284" lon="4.77687">
        <ele>368.4</ele>
        <time>2015-08-15T15:20:39Z</time>
      </trkpt>
      <trkpt lat="45.82841" lon="4.77722">
        <ele>366.008</ele>
        <time>2015-08-15T15:20:44Z</time>
      </trkpt>
      <trkpt lat="45.82846" lon="4.77736">
        <ele>364.873</ele>
        <time>2015-08-15T15:20:46Z</time>
      </trkpt>
      <trkpt lat="45.82859" lon="4.77756">
        <ele>362.512</ele>
        <time>2015-08-15T15:20:49Z</time>
      </trkpt>
      <trkpt lat="45.82886" lon="4.77775">
        <ele>359.604</ele>
        <time>2015-08-15T15:20:54Z</time>
      </trkpt>
      <trkpt lat="45.82895" lon="4.77793">
        <ele>357.723</ele>
        <time>2015-08-15T15:21:00Z</time>
      </trkpt>
      <trkpt lat="45.82882" lon="4.77804">
        <ele>356.637</ele>
        <time>2015-08-15T15:21:05Z</time>
      </trkpt>
      <trkpt lat="45.82879" lon="4.77818">
        <ele>356.139</ele>
        <time>2015-08-15T15:21:16Z</time>
      </trkpt>
      <trkpt lat="45.8285" lon="4.77863">
        <ele>358.099</ele>
        <time>2015-08-15T15:21:31Z</time>
      </trkpt>
      <trkpt lat="45.82814" lon="4.77871">
        <ele>359.355</ele>
        <time>2015-08-15T15:21:49Z</time>
      </trkpt>
      <trkpt lat="45.82784" lon="4.77876">
        <ele>363.523</ele>
        <time>2015-08-15T15:22:06Z</time>
      </trkpt>
      <trkpt lat="45.8277" lon="4.77879">
        <ele>365.575</ele>
        <time>2015-08-15T15:22:14Z</time>
      </trkpt>
      <trkpt lat="45.82748" lon="4.77887">
        <ele>368.752</ele>
        <time>2015-08-15T15:22:29Z</time>
      </trkpt>
      <trkpt lat="45.82726" lon="4.77887">
        <ele>371.143</ele>
        <time>2015-08-15T15:22:45Z</time>
      </trkpt>
      <trkpt lat="45.82724" lon="4.77887">
        <ele>371.185</ele>
        <time>2015-08-15T15:22:46Z</time>
      </trkpt>
      <trkpt lat="45.82694" lon="4.77892">
        <ele>371.242</ele>
        <time>2015-08-15T15:23:03Z</time>
      </trkpt>
      <trkpt lat="45.82677" lon="4.77896">
        <ele>369.582</ele>
        <time>2015-08-15T15:23:16Z</time>
      </trkpt>
      <trkpt lat="45.82676" lon="4.77894">
        <ele>369.428</ele>
        <time>2015-08-15T15:23:32Z</time>
      </trkpt>
      <trkpt lat="45.82675" lon="4.77894">
        <ele>369.436</ele>
        <time>2015-08-15T15:23:33Z</time>
      </trkpt>
      <trkpt lat="45.82671" lon="4.77883">
        <ele>368.301</ele>
        <time>2015-08-15T15:23:38Z</time>
      </trkpt>
      <trkpt lat="45.8267" lon="4.7788">
        <ele>367.832</ele>
        <time>2015-08-15T15:23:40Z</time>
      </trkpt>
      <trkpt lat="45.82656" lon="4.7784">
        <ele>364.585</ele>
        <time>2015-08-15T15:23:49Z</time>
      </trkpt>
      <trkpt lat="45.8265" lon="4.77808">
        <ele>362.9</ele>
        <time>2015-08-15T15:23:53Z</time>
      </trkpt>
      <trkpt lat="45.8264" lon="4.77751">
        <ele>358.574</ele>
        <time>2015-08-15T15:23:59Z</time>
      </trkpt>
      <trkpt lat="45.82617" lon="4.77725">
        <ele>354.738</ele>
        <time>2015-08-15T15:24:03Z</time>
      </trkpt>
      <trkpt lat="45.82518" lon="4.77681">
        <ele>336.273</ele>
        <time>2015-08-15T15:24:14Z</time>
      </trkpt>
      <trkpt lat="45.82508" lon="4.77678">
        <ele>334.547</ele>
        <time>2015-08-15T15:24:15Z</time>
      </trkpt>
      <trkpt lat="45.82469" lon="4.77673">
        <ele>328.196</ele>
        <time>2015-08-15T15:24:19Z</time>
      </trkpt>
      <trkpt lat="45.82432" lon="4.77703">
        <ele>323.097</ele>
        <time>2015-08-15T15:24:24Z</time>
      </trkpt>
      <trkpt lat="45.8242" lon="4.77723">
        <ele>321.165</ele>
        <time>2015-08-15T15:24:26Z</time>
      </trkpt>
      <trkpt lat="45.82382" lon="4.7775">
        <ele>317.734</ele>
        <time>2015-08-15T15:24:31Z</time>
      </trkpt>
      <trkpt lat="45.82356" lon="4.77768">
        <ele>315.227</ele>
        <time>2015-08-15T15:24:36Z</time>
      </trkpt>
      <trkpt lat="45.8235" lon="4.77767">
        <ele>314.968</ele>
        <time>2015-08-15T15:24:39Z</time>
      </trkpt>
      <trkpt lat="45.82348" lon="4.77775">
        <ele>315.034</ele>
        <time>2015-08-15T15:24:44Z</time>
      </trkpt>
      <trkpt lat="45.82346" lon="4.77777">
        <ele>315.25</ele>
        <time>2015-08-15T15:24:47Z</time>
      </trkpt>
      <trkpt lat="45.82331" lon="4.77804">
        <ele>319.435</ele>
        <time>2015-08-15T15:25:03Z</time>
      </trkpt>
      <trkpt lat="45.82315" lon="4.77832">
        <ele>324.162</ele>
        <time>2015-08-15T15:25:20Z</time>
      </trkpt>
      <trkpt lat="45.82298" lon="4.77853">
        <ele>328.809</ele>
        <time>2015-08-15T15:25:36Z</time>
      </trkpt>
      <trkpt lat="45.82276" lon="4.77874">
        <ele>334.746</ele>
        <time>2015-08-15T15:25:57Z</time>
      </trkpt>
      <trkpt lat="45.8227" lon="4.77882">
        <ele>337.394</ele>
        <time>2015-08-15T15:26:03Z</time>
      </trkpt>
      <trkpt lat="45.82266" lon="4.77921">
        <ele>343.655</ele>
        <time>2015-08-15T15:26:23Z</time>
      </trkpt>
      <trkpt lat="45.82266" lon="4.77936">
        <ele>346.557</ele>
        <time>2015-08-15T15:26:30Z</time>
      </trkpt>
      <trkpt lat="45.82265" lon="4.77944">
        <ele>347.521</ele>
        <time>2015-08-15T15:26:36Z</time>
      </trkpt>
      <trkpt lat="45.82265" lon="4.77954">
        <ele>348.569</ele>
        <time>2015-08-15T15:26:43Z</time>
      </trkpt>
      <trkpt lat="45.82264" lon="4.77967">
        <ele>349.272</ele>
        <time>2015-08-15T15:27:00Z</time>
      </trkpt>
      <trkpt lat="45.82263" lon="4.77966">
        <ele>349.691</ele>
        <time>2015-08-15T15:27:19Z</time>
      </trkpt>
      <trkpt lat="45.82262" lon="4.77968">
        <ele>348.883</ele>
        <time>2015-08-15T15:27:54Z</time>
      </trkpt>
      <trkpt lat="45.82233" lon="4.77986">
        <ele>347.176</ele>
        <time>2015-08-15T15:28:11Z</time>
      </trkpt>
      <trkpt lat="45.822" lon="4.77991">
        <ele>345.984</ele>
        <time>2015-08-15T15:28:25Z</time>
      </trkpt>
      <trkpt lat="45.82149" lon="4.77993">
        <ele>344.857</ele>
        <time>2015-08-15T15:28:40Z</time>
      </trkpt>
      <trkpt lat="45.8208" lon="4.77995">
        <ele>345.642</ele>
        <time>2015-08-15T15:28:57Z</time>
      </trkpt>
      <trkpt lat="45.82066" lon="4.77997">
        <ele>345.635</ele>
        <time>2015-08-15T15:29:00Z</time>
      </trkpt>
      <trkpt lat="45.82042" lon="4.77992">
        <ele>343.21</ele>
        <time>2015-08-15T15:29:05Z</time>
      </trkpt>
      <trkpt lat="45.82024" lon="4.77985">
        <ele>340.731</ele>
        <time>2015-08-15T15:29:09Z</time>
      </trkpt>
      <trkpt lat="45.81942" lon="4.7798">
        <ele>333.527</ele>
        <time>2015-08-15T15:29:21Z</time>
      </trkpt>
      <trkpt lat="45.81918" lon="4.77983">
        <ele>332.138</ele>
        <time>2015-08-15T15:29:24Z</time>
      </trkpt>
      <trkpt lat="45.81813" lon="4.78041">
        <ele>327.527</ele>
        <time>2015-08-15T15:29:37Z</time>
      </trkpt>
      <trkpt lat="45.81761" lon="4.78067">
        <ele>326.508</ele>
        <time>2015-08-15T15:29:44Z</time>
      </trkpt>
      <trkpt lat="45.817" lon="4.7807">
        <ele>324.313</ele>
        <time>2015-08-15T15:29:52Z</time>
      </trkpt>
      <trkpt lat="45.81632" lon="4.7811">
        <ele>321.388</ele>
        <time>2015-08-15T15:30:01Z</time>
      </trkpt>
      <trkpt lat="45.81599" lon="4.78163">
        <ele>319.008</ele>
        <time>2015-08-15T15:30:07Z</time>
      </trkpt>
      <trkpt lat="45.81516" lon="4.78226">
        <ele>311.442</ele>
        <time>2015-08-15T15:30:17Z</time>
      </trkpt>
      <trkpt lat="45.81502" lon="4.78273">
        <ele>307.382</ele>
        <time>2015-08-15T15:30:23Z</time>
      </trkpt>
      <trkpt lat="45.81522" lon="4.78281">
        <ele>305.854</ele>
        <time>2015-08-15T15:30:26Z</time>
      </trkpt>
      <trkpt lat="45.81542" lon="4.78303">
        <ele>302.444</ele>
        <time>2015-08-15T15:30:33Z</time>
      </trkpt>
      <trkpt lat="45.81534" lon="4.78306">
        <ele>301.04</ele>
        <time>2015-08-15T15:30:36Z</time>
      </trkpt>
      <trkpt lat="45.815" lon="4.78309">
        <ele>300.358</ele>
        <time>2015-08-15T15:30:44Z</time>
      </trkpt>
      <trkpt lat="45.81485" lon="4.78308">
        <ele>300.017</ele>
        <time>2015-08-15T15:30:47Z</time>
      </trkpt>
      <trkpt lat="45.81458" lon="4.78287">
        <ele>298.387</ele>
        <time>2015-08-15T15:30:53Z</time>
      </trkpt>
      <trkpt lat="45.81444" lon="4.7827">
        <ele>296.02</ele>
        <time>2015-08-15T15:30:56Z</time>
      </trkpt>
      <trkpt lat="45.81412" lon="4.78244">
        <ele>292.3</ele>
        <time>2015-08-15T15:31:01Z</time>
      </trkpt>
      <trkpt lat="45.8134" lon="4.78239">
        <ele>285.867</ele>
        <time>2015-08-15T15:31:09Z</time>
      </trkpt>
      <trkpt lat="45.81315" lon="4.7824">
        <ele>284.26</ele>
        <time>2015-08-15T15:31:12Z</time>
      </trkpt>
      <trkpt lat="45.81278" lon="4.78267">
        <ele>282.296</ele>
        <time>2015-08-15T15:31:18Z</time>
      </trkpt>
      <trkpt lat="45.81263" lon="4.78269">
        <ele>281.479</ele>
        <time>2015-08-15T15:31:22Z</time>
      </trkpt>
      <trkpt lat="45.81259" lon="4.78267">
        <ele>281.565</ele>
        <time>2015-08-15T15:31:24Z</time>
      </trkpt>
      <trkpt lat="45.8123" lon="4.78219">
        <ele>280.015</ele>
        <time>2015-08-15T15:31:38Z</time>
      </trkpt>
      <trkpt lat="45.81188" lon="4.78225">
        <ele>278.116</ele>
        <time>2015-08-15T15:31:50Z</time>
      </trkpt>
      <trkpt lat="45.81186" lon="4.78226">
        <ele>278.238</ele>
        <time>2015-08-15T15:31:51Z</time>
      </trkpt>
      <trkpt lat="45.81172" lon="4.78231">
        <ele>278.942</ele>
        <time>2015-08-15T15:32:01Z</time>
      </trkpt>
      <trkpt lat="45.81169" lon="4.78229">
        <ele>279.545</ele>
        <time>2015-08-15T15:32:22Z</time>
      </trkpt>
      <trkpt lat="45.81165" lon="4.78231">
        <ele>279.839</ele>
        <time>2015-08-15T15:32:39Z</time>
      </trkpt>
      <trkpt lat="45.81131" lon="4.78244">
        <ele>275.17</ele>
        <time>2015-08-15T15:32:51Z</time>
      </trkpt>
      <trkpt lat="45.81126" lon="4.78245">
        <ele>274.892</ele>
        <time>2015-08-15T15:32:52Z</time>
      </trkpt>
      <trkpt lat="45.81077" lon="4.78249">
        <ele>275.69</ele>
        <time>2015-08-15T15:33:02Z</time>
      </trkpt>
      <trkpt lat="45.81041" lon="4.78254">
        <ele>277.628</ele>
        <time>2015-08-15T15:33:07Z</time>
      </trkpt>
      <trkpt lat="45.81018" lon="4.78252">
        <ele>276.276</ele>
        <time>2015-08-15T15:33:11Z</time>
      </trkpt>
      <trkpt lat="45.80977" lon="4.78249">
        <ele>274.029</ele>
        <time>2015-08-15T15:33:17Z</time>
      </trkpt>
      <trkpt lat="45.80952" lon="4.78249">
        <ele>274.394</ele>
        <time>2015-08-15T15:33:21Z</time>
      </trkpt>
      <trkpt lat="45.80937" lon="4.78259">
        <ele>274.653</ele>
        <time>2015-08-15T15:33:25Z</time>
      </trkpt>
      <trkpt lat="45.80913" lon="4.7831">
        <ele>272.674</ele>
        <time>2015-08-15T15:33:34Z</time>
      </trkpt>
      <trkpt lat="45.80905" lon="4.78336">
        <ele>268.587</ele>
        <time>2015-08-15T15:33:44Z</time>
      </trkpt>
      <trkpt lat="45.80904" lon="4.78337">
        <ele>268.672</ele>
        <time>2015-08-15T15:33:54Z</time>
      </trkpt>
      <trkpt lat="45.80898" lon="4.78344">
        <ele>270.411</ele>
        <time>2015-08-15T15:33:58Z</time>
      </trkpt>
      <trkpt lat="45.80889" lon="4.78352">
        <ele>274.46</ele>
        <time>2015-08-15T15:34:02Z</time>
      </trkpt>
      <trkpt lat="45.80884" lon="4.78357">
        <ele>274.919</ele>
        <time>2015-08-15T15:34:05Z</time>
      </trkpt>
      <trkpt lat="45.80859" lon="4.78354">
        <ele>275.89</ele>
        <time>2015-08-15T15:34:12Z</time>
      </trkpt>
      <trkpt lat="45.808" lon="4.78362">
        <ele>278.313</ele>
        <time>2015-08-15T15:34:22Z</time>
      </trkpt>
      <trkpt lat="45.80785" lon="4.78362">
        <ele>278.134</ele>
        <time>2015-08-15T15:34:28Z</time>
      </trkpt>
      <trkpt lat="45.80776" lon="4.78365">
        <ele>277.234</ele>
        <time>2015-08-15T15:34:30Z</time>
      </trkpt>
      <trkpt lat="45.80746" lon="4.78372">
        <ele>274.213</ele>
        <time>2015-08-15T15:34:36Z</time>
      </trkpt>
      <trkpt lat="45.80735" lon="4.78377">
        <ele>274.184</ele>
        <time>2015-08-15T15:34:38Z</time>
      </trkpt>
      <trkpt lat="45.80706" lon="4.78388">
        <ele>275.322</ele>
        <time>2015-08-15T15:34:45Z</time>
      </trkpt>
      <trkpt lat="45.80682" lon="4.78395">
        <ele>274.981</ele>
        <time>2015-08-15T15:34:53Z</time>
      </trkpt>
      <trkpt lat="45.80681" lon="4.78395">
        <ele>275.817</ele>
        <time>2015-08-15T15:35:01Z</time>
      </trkpt>
      <trkpt lat="45.80665" lon="4.78386">
        <ele>272.981</ele>
        <time>2015-08-15T15:35:06Z</time>
      </trkpt>
      <trkpt lat="45.80662" lon="4.78388">
        <ele>270.666</ele>
        <time>2015-08-15T15:35:19Z</time>
      </trkpt>
      <trkpt lat="45.80659" lon="4.78391">
        <ele>271.157</ele>
        <time>2015-08-15T15:35:23Z</time>
      </trkpt>
      <trkpt lat="45.80647" lon="4.78396">
        <ele>270.894</ele>
        <time>2015-08-15T15:35:26Z</time>
      </trkpt>
      <trkpt lat="45.80624" lon="4.78417">
        <ele>271.198</ele>
        <time>2015-08-15T15:35:31Z</time>
      </trkpt>
      <trkpt lat="45.80607" lon="4.78443">
        <ele>273.291</ele>
        <time>2015-08-15T15:35:36Z</time>
      </trkpt>
      <trkpt lat="45.80586" lon="4.78526">
        <ele>263.586</ele>
        <time>2015-08-15T15:35:47Z</time>
      </trkpt>
      <trkpt lat="45.80568" lon="4.78586">
        <ele>264.221</ele>
        <time>2015-08-15T15:35:55Z</time>
      </trkpt>
      <trkpt lat="45.80556" lon="4.78605">
        <ele>264.506</ele>
        <time>2015-08-15T15:35:59Z</time>
      </trkpt>
      <trkpt lat="45.80548" lon="4.78611">
        <ele>265.09</ele>
        <time>2015-08-15T15:36:08Z</time>
      </trkpt>
      <trkpt lat="45.80545" lon="4.78622">
        <ele>263.552</ele>
        <time>2015-08-15T15:36:24Z</time>
      </trkpt>
      <trkpt lat="45.80543" lon="4.78624">
        <ele>263.968</ele>
        <time>2015-08-15T15:36:45Z</time>
      </trkpt>
      <trkpt lat="45.80523" lon="4.7864">
        <ele>262.682</ele>
        <time>2015-08-15T15:37:02Z</time>
      </trkpt>
      <trkpt lat="45.80518" lon="4.78643">
        <ele>262.281</ele>
        <time>2015-08-15T15:37:03Z</time>
      </trkpt>
      <trkpt lat="45.80485" lon="4.78654">
        <ele>261.902</ele>
        <time>2015-08-15T15:37:12Z</time>
      </trkpt>
      <trkpt lat="45.80466" lon="4.78667">
        <ele>261.084</ele>
        <time>2015-08-15T15:37:20Z</time>
      </trkpt>
      <trkpt lat="45.80468" lon="4.78666">
        <ele>261.091</ele>
        <time>2015-08-15T15:37:22Z</time>
      </trkpt>
      <trkpt lat="45.80474" lon="4.7866">
        <ele>261.164</ele>
        <time>2015-08-15T15:37:25Z</time>
      </trkpt>
      <trkpt lat="45.80502" lon="4.78654">
        <ele>261.8</ele>
        <time>2015-08-15T15:37:36Z</time>
      </trkpt>
      <trkpt lat="45.805" lon="4.78636">
        <ele>260.795</ele>
        <time>2015-08-15T15:37:45Z</time>
      </trkpt>
      <trkpt lat="45.80459" lon="4.78606">
        <ele>261.058</ele>
        <time>2015-08-15T15:37:57Z</time>
      </trkpt>
      <trkpt lat="45.80448" lon="4.78599">
        <ele>262.4</ele>
        <time>2015-08-15T15:38:00Z</time>
      </trkpt>
      <trkpt lat="45.80416" lon="4.7861">
        <ele>261.439</ele>
        <time>2015-08-15T15:38:13Z</time>
      </trkpt>
      <trkpt lat="45.80402" lon="4.7862">
        <ele>263.164</ele>
        <time>2015-08-15T15:38:20Z</time>
      </trkpt>
      <trkpt lat="45.80373" lon="4.78643">
        <ele>269.712</ele>
        <time>2015-08-15T15:38:38Z</time>
      </trkpt>
      <trkpt lat="45.80355" lon="4.78655">
        <ele>267.745</ele>
        <time>2015-08-15T15:38:49Z</time>
      </trkpt>
      <trkpt lat="45.80338" lon="4.78668">
        <ele>270.917</ele>
        <time>2015-08-15T15:39:01Z</time>
      </trkpt>
      <trkpt lat="45.80322" lon="4.78668">
        <ele>272.245</ele>
        <time>2015-08-15T15:39:11Z</time>
      </trkpt>
      <trkpt lat="45.80303" lon="4.78667">
        <ele>281.643</ele>
        <time>2015-08-15T15:39:27Z</time>
      </trkpt>
      <trkpt lat="45.803" lon="4.78667">
        <ele>282.489</ele>
        <time>2015-08-15T15:39:30Z</time>
      </trkpt>
      <trkpt lat="45.80284" lon="4.78666">
        <ele>284.637</ele>
        <time>2015-08-15T15:39:44Z</time>
      </trkpt>
      <trkpt lat="45.80282" lon="4.78666">
        <ele>284.932</ele>
        <time>2015-08-15T15:39:46Z</time>
      </trkpt>
      <trkpt lat="45.80271" lon="4.78667">
        <ele>285.531</ele>
        <time>2015-08-15T15:40:01Z</time>
      </trkpt>
      <trkpt lat="45.80259" lon="4.78669">
        <ele>286.166</ele>
        <time>2015-08-15T15:40:21Z</time>
      </trkpt>
      <trkpt lat="45.80252" lon="4.78668">
        <ele>287.274</ele>
        <time>2015-08-15T15:40:31Z</time>
      </trkpt>
      <trkpt lat="45.80239" lon="4.78666">
        <ele>288.979</ele>
        <time>2015-08-15T15:40:44Z</time>
      </trkpt>
      <trkpt lat="45.80231" lon="4.78667">
        <ele>288.174</ele>
        <time>2015-08-15T15:40:57Z</time>
      </trkpt>
      <trkpt lat="45.80231" lon="4.78667">
        <ele>288.085</ele>
        <time>2015-08-15T15:40:59Z</time>
      </trkpt>
      <trkpt lat="45.80207" lon="4.78666">
        <ele>290.247</ele>
        <time>2015-08-15T15:41:14Z</time>
      </trkpt>
      <trkpt lat="45.80185" lon="4.78664">
        <ele>289.531</ele>
        <time>2015-08-15T15:41:23Z</time>
      </trkpt>
      <trkpt lat="45.80182" lon="4.78672">
        <ele>289.745</ele>
        <time>2015-08-15T15:41:27Z</time>
      </trkpt>
      <trkpt lat="45.80199" lon="4.78717">
        <ele>283.453</ele>
        <time>2015-08-15T15:41:39Z</time>
      </trkpt>
      <trkpt lat="45.80202" lon="4.7873">
        <ele>282.424</ele>
        <time>2015-08-15T15:41:41Z</time>
      </trkpt>
      <trkpt lat="45.80196" lon="4.78758">
        <ele>280.266</ele>
        <time>2015-08-15T15:41:45Z</time>
      </trkpt>
      <trkpt lat="45.80191" lon="4.7877">
        <ele>279.243</ele>
        <time>2015-08-15T15:41:47Z</time>
      </trkpt>
      <trkpt lat="45.80182" lon="4.78793">
        <ele>277.383</ele>
        <time>2015-08-15T15:41:51Z</time>
      </trkpt>
      <trkpt lat="45.80179" lon="4.78828">
        <ele>275.081</ele>
        <time>2015-08-15T15:41:59Z</time>
      </trkpt>
      <trkpt lat="45.80179" lon="4.78835">
        <ele>275.057</ele>
        <time>2015-08-15T15:42:01Z</time>
      </trkpt>
      <trkpt lat="45.80184" lon="4.78853">
        <ele>272.598</ele>
        <time>2015-08-15T15:42:08Z</time>
      </trkpt>
      <trkpt lat="45.80187" lon="4.78865">
        <ele>271.705</ele>
        <time>2015-08-15T15:42:22Z</time>
      </trkpt>
      <trkpt lat="45.80186" lon="4.78864">
        <ele>271.443</ele>
        <time>2015-08-15T15:42:29Z</time>
      </trkpt>
      <trkpt lat="45.80186" lon="4.78859">
        <ele>271.43</ele>
        <time>2015-08-15T15:42:34Z</time>
      </trkpt>
      <trkpt lat="45.80189" lon="4.7887">
        <ele>271.828</ele>
        <time>2015-08-15T15:42:41Z</time>
      </trkpt>
      <trkpt lat="45.80201" lon="4.78907">
        <ele>276.004</ele>
        <time>2015-08-15T15:42:54Z</time>
      </trkpt>
      <trkpt lat="45.8021" lon="4.78942">
        <ele>276.815</ele>
        <time>2015-08-15T15:43:12Z</time>
      </trkpt>
      <trkpt lat="45.80212" lon="4.78951">
        <ele>276.033</ele>
        <time>2015-08-15T15:43:14Z</time>
      </trkpt>
      <trkpt lat="45.8022" lon="4.79002">
        <ele>273.677</ele>
        <time>2015-08-15T15:43:20Z</time>
      </trkpt>
      <trkpt lat="45.80229" lon="4.79051">
        <ele>270.53</ele>
        <time>2015-08-15T15:43:25Z</time>
      </trkpt>
      <trkpt lat="45.80226" lon="4.79097">
        <ele>267.438</ele>
        <time>2015-08-15T15:43:30Z</time>
      </trkpt>
      <trkpt lat="45.80189" lon="4.79151">
        <ele>261.393</ele>
        <time>2015-08-15T15:43:40Z</time>
      </trkpt>
      <trkpt lat="45.80173" lon="4.79169">
        <ele>260.225</ele>
        <time>2015-08-15T15:43:43Z</time>
      </trkpt>
      <trkpt lat="45.80165" lon="4.79203">
        <ele>257.561</ele>
        <time>2015-08-15T15:43:47Z</time>
      </trkpt>
      <trkpt lat="45.80167" lon="4.79221">
        <ele>256.801</ele>
        <time>2015-08-15T15:43:52Z</time>
      </trkpt>
      <trkpt lat="45.8017" lon="4.79224">
        <ele>256.861</ele>
        <time>2015-08-15T15:44:06Z</time>
      </trkpt>
      <trkpt lat="45.80176" lon="4.79225">
        <ele>257.472</ele>
        <time>2015-08-15T15:44:10Z</time>
      </trkpt>
      <trkpt lat="45.80192" lon="4.79246">
        <ele>254.106</ele>
        <time>2015-08-15T15:44:15Z</time>
      </trkpt>
      <trkpt lat="45.802" lon="4.79315">
        <ele>250.041</ele>
        <time>2015-08-15T15:44:22Z</time>
      </trkpt>
      <trkpt lat="45.80196" lon="4.79367">
        <ele>248.216</ele>
        <time>2015-08-15T15:44:26Z</time>
      </trkpt>
      <trkpt lat="45.80184" lon="4.79402">
        <ele>247.14</ele>
        <time>2015-08-15T15:44:29Z</time>
      </trkpt>
      <trkpt lat="45.80171" lon="4.79433">
        <ele>246.886</ele>
        <time>2015-08-15T15:44:32Z</time>
      </trkpt>
      <trkpt lat="45.80165" lon="4.79476">
        <ele>246.802</ele>
        <time>2015-08-15T15:44:36Z</time>
      </trkpt>
      <trkpt lat="45.80164" lon="4.79514">
        <ele>246.576</ele>
        <time>2015-08-15T15:44:40Z</time>
      </trkpt>
      <trkpt lat="45.80166" lon="4.79586">
        <ele>241.086</ele>
        <time>2015-08-15T15:44:49Z</time>
      </trkpt>
      <trkpt lat="45.80163" lon="4.79605">
        <ele>241.928</ele>
        <time>2015-08-15T15:44:52Z</time>
      </trkpt>
      <trkpt lat="45.80161" lon="4.7963">
        <ele>241.628</ele>
        <time>2015-08-15T15:44:56Z</time>
      </trkpt>
      <trkpt lat="45.80155" lon="4.79689">
        <ele>246.429</ele>
        <time>2015-08-15T15:45:11Z</time>
      </trkpt>
      <trkpt lat="45.80153" lon="4.797">
        <ele>247.194</ele>
        <time>2015-08-15T15:45:15Z</time>
      </trkpt>
      <trkpt lat="45.80152" lon="4.79707">
        <ele>246.981</ele>
        <time>2015-08-15T15:45:18Z</time>
      </trkpt>
      <trkpt lat="45.80145" lon="4.79736">
        <ele>242.682</ele>
        <time>2015-08-15T15:45:25Z</time>
      </trkpt>
      <trkpt lat="45.80136" lon="4.7976">
        <ele>241.496</ele>
        <time>2015-08-15T15:45:29Z</time>
      </trkpt>
      <trkpt lat="45.80126" lon="4.79776">
        <ele>241.91</ele>
        <time>2015-08-15T15:45:32Z</time>
      </trkpt>
      <trkpt lat="45.80113" lon="4.79788">
        <ele>241.784</ele>
        <time>2015-08-15T15:45:35Z</time>
      </trkpt>
      <trkpt lat="45.80094" lon="4.79801">
        <ele>240.483</ele>
        <time>2015-08-15T15:45:39Z</time>
      </trkpt>
      <trkpt lat="45.80068" lon="4.79802">
        <ele>238.992</ele>
        <time>2015-08-15T15:45:43Z</time>
      </trkpt>
      <trkpt lat="45.80053" lon="4.79802">
        <ele>237.687</ele>
        <time>2015-08-15T15:45:45Z</time>
      </trkpt>
      <trkpt lat="45.80027" lon="4.79804">
        <ele>235.532</ele>
        <time>2015-08-15T15:45:48Z</time>
      </trkpt>
      <trkpt lat="45.79985" lon="4.79802">
        <ele>232.142</ele>
        <time>2015-08-15T15:45:53Z</time>
      </trkpt>
      <trkpt lat="45.79922" lon="4.79831">
        <ele>231.419</ele>
        <time>2015-08-15T15:46:00Z</time>
      </trkpt>
      <trkpt lat="45.79872" lon="4.79857">
        <ele>231.092</ele>
        <time>2015-08-15T15:46:07Z</time>
      </trkpt>
      <trkpt lat="45.79843" lon="4.79852">
        <ele>230.124</ele>
        <time>2015-08-15T15:46:11Z</time>
      </trkpt>
      <trkpt lat="45.79751" lon="4.79857">
        <ele>229.614</ele>
        <time>2015-08-15T15:46:27Z</time>
      </trkpt>
      <trkpt lat="45.79747" lon="4.79858">
        <ele>228.789</ele>
        <time>2015-08-15T15:46:29Z</time>
      </trkpt>
      <trkpt lat="45.79737" lon="4.79863">
        <ele>226.903</ele>
        <time>2015-08-15T15:46:34Z</time>
      </trkpt>
      <trkpt lat="45.79732" lon="4.79864">
        <ele>226.122</ele>
        <time>2015-08-15T15:46:36Z</time>
      </trkpt>
      <trkpt lat="45.79695" lon="4.79887">
        <ele>225.282</ele>
        <time>2015-08-15T15:46:49Z</time>
      </trkpt>
      <trkpt lat="45.79677" lon="4.79896">
        <ele>225.775</ele>
        <time>2015-08-15T15:46:53Z</time>
      </trkpt>
      <trkpt lat="45.79618" lon="4.79917">
        <ele>226.134</ele>
        <time>2015-08-15T15:47:05Z</time>
      </trkpt>
      <trkpt lat="45.79587" lon="4.79917">
        <ele>227.312</ele>
        <time>2015-08-15T15:47:12Z</time>
      </trkpt>
      <trkpt lat="45.79553" lon="4.79912">
        <ele>225.938</ele>
        <time>2015-08-15T15:47:20Z</time>
      </trkpt>
      <trkpt lat="45.7949" lon="4.79918">
        <ele>223.78</ele>
        <time>2015-08-15T15:47:32Z</time>
      </trkpt>
      <trkpt lat="45.79459" lon="4.79938">
        <ele>221.645</ele>
        <time>2015-08-15T15:47:37Z</time>
      </trkpt>
      <trkpt lat="45.79438" lon="4.79947">
        <ele>219.26</ele>
        <time>2015-08-15T15:47:40Z</time>
      </trkpt>
      <trkpt lat="45.79387" lon="4.79943">
        <ele>215.352</ele>
        <time>2015-08-15T15:47:46Z</time>
      </trkpt>
      <trkpt lat="45.79352" lon="4.79952">
        <ele>213.177</ele>
        <time>2015-08-15T15:47:50Z</time>
      </trkpt>
      <trkpt lat="45.79325" lon="4.79973">
        <ele>210.262</ele>
        <time>2015-08-15T15:47:53Z</time>
      </trkpt>
      <trkpt lat="45.79277" lon="4.79998">
        <ele>205.069</ele>
        <time>2015-08-15T15:47:58Z</time>
      </trkpt>
      <trkpt lat="45.79254" lon="4.80046">
        <ele>204.094</ele>
        <time>2015-08-15T15:48:03Z</time>
      </trkpt>
      <trkpt lat="45.7925" lon="4.8008">
        <ele>202.872</ele>
        <time>2015-08-15T15:48:06Z</time>
      </trkpt>
      <trkpt lat="45.79248" lon="4.80177">
        <ele>196.614</ele>
        <time>2015-08-15T15:48:13Z</time>
      </trkpt>
      <trkpt lat="45.79252" lon="4.80221">
        <ele>193.532</ele>
        <time>2015-08-15T15:48:16Z</time>
      </trkpt>
      <trkpt lat="45.79223" lon="4.80273">
        <ele>188.551</ele>
        <time>2015-08-15T15:48:22Z</time>
      </trkpt>
      <trkpt lat="45.79164" lon="4.80295">
        <ele>184.085</ele>
        <time>2015-08-15T15:48:28Z</time>
      </trkpt>
      <trkpt lat="45.79132" lon="4.80333">
        <ele>182.43</ele>
        <time>2015-08-15T15:48:32Z</time>
      </trkpt>
      <trkpt lat="45.79109" lon="4.8038">
        <ele>180.116</ele>
        <time>2015-08-15T15:48:36Z</time>
      </trkpt>
      <trkpt lat="45.79082" lon="4.80417">
        <ele>179.314</ele>
        <time>2015-08-15T15:48:40Z</time>
      </trkpt>
      <trkpt lat="45.79059" lon="4.80438">
        <ele>178.97</ele>
        <time>2015-08-15T15:48:43Z</time>
      </trkpt>
      <trkpt lat="45.79023" lon="4.80484">
        <ele>179.143</ele>
        <time>2015-08-15T15:48:49Z</time>
      </trkpt>
      <trkpt lat="45.78998" lon="4.80524">
        <ele>179.83</ele>
        <time>2015-08-15T15:48:54Z</time>
      </trkpt>
      <trkpt lat="45.78982" lon="4.80557">
        <ele>180.635</ele>
        <time>2015-08-15T15:48:58Z</time>
      </trkpt>
      <trkpt lat="45.7896" lon="4.80622">
        <ele>179.596</ele>
        <time>2015-08-15T15:49:06Z</time>
      </trkpt>
      <trkpt lat="45.78947" lon="4.80649">
        <ele>179.822</ele>
        <time>2015-08-15T15:49:10Z</time>
      </trkpt>
      <trkpt lat="45.78931" lon="4.8068">
        <ele>179.697</ele>
        <time>2015-08-15T15:49:15Z</time>
      </trkpt>
      <trkpt lat="45.78899" lon="4.80713">
        <ele>177.14</ele>
        <time>2015-08-15T15:49:23Z</time>
      </trkpt>
      <trkpt lat="45.78892" lon="4.80734">
        <ele>177.157</ele>
        <time>2015-08-15T15:49:27Z</time>
      </trkpt>
      <trkpt lat="45.78893" lon="4.80766">
        <ele>176.082</ele>
        <time>2015-08-15T15:49:36Z</time>
      </trkpt>
      <trkpt lat="45.78893" lon="4.80772">
        <ele>175.601</ele>
        <time>2015-08-15T15:49:43Z</time>
      </trkpt>
      <trkpt lat="45.78884" lon="4.80779">
        <ele>175.195</ele>
        <time>2015-08-15T15:49:49Z</time>
      </trkpt>
      <trkpt lat="45.78863" lon="4.80791">
        <ele>174.597</ele>
        <time>2015-08-15T15:49:55Z</time>
      </trkpt>
      <trkpt lat="45.78848" lon="4.80806">
        <ele>174.325</ele>
        <time>2015-08-15T15:49:59Z</time>
      </trkpt>
      <trkpt lat="45.78817" lon="4.80851">
        <ele>173.744</ele>
        <time>2015-08-15T15:50:07Z</time>
      </trkpt>
      <trkpt lat="45.78771" lon="4.80867">
        <ele>171.271</ele>
        <time>2015-08-15T15:50:14Z</time>
      </trkpt>
      <trkpt lat="45.78636" lon="4.80809">
        <ele>167.106</ele>
        <time>2015-08-15T15:50:34Z</time>
      </trkpt>
      <trkpt lat="45.7857" lon="4.80781">
        <ele>165.102</ele>
        <time>2015-08-15T15:50:46Z</time>
      </trkpt>
      <trkpt lat="45.78565" lon="4.80779">
        <ele>165.453</ele>
        <time>2015-08-15T15:50:57Z</time>
      </trkpt>
      <trkpt lat="45.78542" lon="4.8077">
        <ele>166.272</ele>
        <time>2015-08-15T15:51:23Z</time>
      </trkpt>
      <trkpt lat="45.78521" lon="4.80777">
        <ele>166.181</ele>
        <time>2015-08-15T15:51:29Z</time>
      </trkpt>
      <trkpt lat="45.78516" lon="4.80785">
        <ele>166.128</ele>
        <time>2015-08-15T15:51:32Z</time>
      </trkpt>
      <trkpt lat="45.78516" lon="4.80811">
        <ele>166.599</ele>
        <time>2015-08-15T15:51:38Z</time>
      </trkpt>
      <trkpt lat="45.78455" lon="4.80818">
        <ele>167.986</ele>
        <time>2015-08-15T15:51:46Z</time>
      </trkpt>
      <trkpt lat="45.7843" lon="4.80818">
        <ele>167.754</ele>
        <time>2015-08-15T15:51:51Z</time>
      </trkpt>
      <trkpt lat="45.78332" lon="4.80766">
        <ele>167.448</ele>
        <time>2015-08-15T15:52:12Z</time>
      </trkpt>
      <trkpt lat="45.78236" lon="4.8072">
        <ele>166.748</ele>
        <time>2015-08-15T15:52:30Z</time>
      </trkpt>
      <trkpt lat="45.78179" lon="4.80679">
        <ele>167.024</ele>
        <time>2015-08-15T15:52:42Z</time>
      </trkpt>
      <trkpt lat="45.78147" lon="4.80684">
        <ele>166.973</ele>
        <time>2015-08-15T15:52:49Z</time>
      </trkpt>
      <trkpt lat="45.78138" lon="4.80699">
        <ele>166.645</ele>
        <time>2015-08-15T15:52:52Z</time>
      </trkpt>
      <trkpt lat="45.781" lon="4.80783">
        <ele>166.797</ele>
        <time>2015-08-15T15:53:10Z</time>
      </trkpt>
      <trkpt lat="45.78079" lon="4.80826">
        <ele>167.735</ele>
        <time>2015-08-15T15:53:23Z</time>
      </trkpt>
      <trkpt lat="45.78049" lon="4.80888">
        <ele>170.297</ele>
        <time>2015-08-15T15:53:37Z</time>
      </trkpt>
      <trkpt lat="45.78004" lon="4.8088">
        <ele>170.221</ele>
        <time>2015-08-15T15:53:48Z</time>
      </trkpt>
      <trkpt lat="45.77935" lon="4.80841">
        <ele>168.426</ele>
        <time>2015-08-15T15:54:03Z</time>
      </trkpt>
      <trkpt lat="45.7787" lon="4.808">
        <ele>170.068</ele>
        <time>2015-08-15T15:54:18Z</time>
      </trkpt>
      <trkpt lat="45.77828" lon="4.8079">
        <ele>169.918</ele>
        <time>2015-08-15T15:54:28Z</time>
      </trkpt>
      <trkpt lat="45.77788" lon="4.80784">
        <ele>169.763</ele>
        <time>2015-08-15T15:54:36Z</time>
      </trkpt>
      <trkpt lat="45.77724" lon="4.80767">
        <ele>169.449</ele>
        <time>2015-08-15T15:54:49Z</time>
      </trkpt>
      <trkpt lat="45.77716" lon="4.80762">
        <ele>169.42</ele>
        <time>2015-08-15T15:54:51Z</time>
      </trkpt>
      <trkpt lat="45.77709" lon="4.80755">
        <ele>168.845</ele>
        <time>2015-08-15T15:54:53Z</time>
      </trkpt>
      <trkpt lat="45.77702" lon="4.80748">
        <ele>168.642</ele>
        <time>2015-08-15T15:54:55Z</time>
      </trkpt>
      <trkpt lat="45.77678" lon="4.80752">
        <ele>167.807</ele>
        <time>2015-08-15T15:55:00Z</time>
      </trkpt>
      <trkpt lat="45.77669" lon="4.80759">
        <ele>167.882</ele>
        <time>2015-08-15T15:55:02Z</time>
      </trkpt>
      <trkpt lat="45.77651" lon="4.80762">
        <ele>167.286</ele>
        <time>2015-08-15T15:55:06Z</time>
      </trkpt>
      <trkpt lat="45.77621" lon="4.80781">
        <ele>168.023</ele>
        <time>2015-08-15T15:55:13Z</time>
      </trkpt>
      <trkpt lat="45.77521" lon="4.80828">
        <ele>163.029</ele>
        <time>2015-08-15T15:55:29Z</time>
      </trkpt>
      <trkpt lat="45.77472" lon="4.80851">
        <ele>160.661</ele>
        <time>2015-08-15T15:55:35Z</time>
      </trkpt>
      <trkpt lat="45.77422" lon="4.80894">
        <ele>166.057</ele>
        <time>2015-08-15T15:55:46Z</time>
      </trkpt>
      <trkpt lat="45.77419" lon="4.80897">
        <ele>166.265</ele>
        <time>2015-08-15T15:55:47Z</time>
      </trkpt>
      <trkpt lat="45.77372" lon="4.80919">
        <ele>166.914</ele>
        <time>2015-08-15T15:55:58Z</time>
      </trkpt>
      <trkpt lat="45.77332" lon="4.80971">
        <ele>167.744</ele>
        <time>2015-08-15T15:56:13Z</time>
      </trkpt>
      <trkpt lat="45.77321" lon="4.80994">
        <ele>168.341</ele>
        <time>2015-08-15T15:56:18Z</time>
      </trkpt>
      <trkpt lat="45.77298" lon="4.8102">
        <ele>169.053</ele>
        <time>2015-08-15T15:56:25Z</time>
      </trkpt>
      <trkpt lat="45.77292" lon="4.81022">
        <ele>169.578</ele>
        <time>2015-08-15T15:56:27Z</time>
      </trkpt>
      <trkpt lat="45.77273" lon="4.8104">
        <ele>172.069</ele>
        <time>2015-08-15T15:56:38Z</time>
      </trkpt>
      <trkpt lat="45.77271" lon="4.81044">
        <ele>173.056</ele>
        <time>2015-08-15T15:57:04Z</time>
      </trkpt>
      <trkpt lat="45.77272" lon="4.81044">
        <ele>172.952</ele>
        <time>2015-08-15T15:58:33Z</time>
      </trkpt>
      <trkpt lat="45.77257" lon="4.81074">
        <ele>174.133</ele>
        <time>2015-08-15T15:58:43Z</time>
      </trkpt>
      <trkpt lat="45.77208" lon="4.8113">
        <ele>173.28</ele>
        <time>2015-08-15T15:59:01Z</time>
      </trkpt>
      <trkpt lat="45.77192" lon="4.81139">
        <ele>170.534</ele>
        <time>2015-08-15T15:59:05Z</time>
      </trkpt>
      <trkpt lat="45.7718" lon="4.8115">
        <ele>169.729</ele>
        <time>2015-08-15T15:59:08Z</time>
      </trkpt>
      <trkpt lat="45.77141" lon="4.81172">
        <ele>169.218</ele>
        <time>2015-08-15T15:59:17Z</time>
      </trkpt>
      <trkpt lat="45.77099" lon="4.81193">
        <ele>171.399</ele>
        <time>2015-08-15T15:59:26Z</time>
      </trkpt>
      <trkpt lat="45.77057" lon="4.81214">
        <ele>173.49</ele>
        <time>2015-08-15T15:59:36Z</time>
      </trkpt>
      <trkpt lat="45.77008" lon="4.81241">
        <ele>176.527</ele>
        <time>2015-08-15T15:59:47Z</time>
      </trkpt>
      <trkpt lat="45.77" lon="4.81281">
        <ele>175.283</ele>
        <time>2015-08-15T15:59:54Z</time>
      </trkpt>
      <trkpt lat="45.77008" lon="4.81319">
        <ele>174.432</ele>
        <time>2015-08-15T16:00:00Z</time>
      </trkpt>
      <trkpt lat="45.7702" lon="4.81386">
        <ele>171.147</ele>
        <time>2015-08-15T16:00:12Z</time>
      </trkpt>
      <trkpt lat="45.77012" lon="4.81419">
        <ele>169.48</ele>
        <time>2015-08-15T16:00:20Z</time>
      </trkpt>
      <trkpt lat="45.77003" lon="4.81424">
        <ele>169.497</ele>
        <time>2015-08-15T16:00:23Z</time>
      </trkpt>
      <trkpt lat="45.76995" lon="4.81436">
        <ele>169.142</ele>
        <time>2015-08-15T16:00:26Z</time>
      </trkpt>
      <trkpt lat="45.76908" lon="4.81491">
        <ele>166.914</ele>
        <time>2015-08-15T16:00:44Z</time>
      </trkpt>
      <trkpt lat="45.7685" lon="4.8154">
        <ele>166.167</ele>
        <time>2015-08-15T16:00:56Z</time>
      </trkpt>
      <trkpt lat="45.76851" lon="4.81563">
        <ele>163.96</ele>
        <time>2015-08-15T16:01:00Z</time>
      </trkpt>
      <trkpt lat="45.76874" lon="4.81575">
        <ele>161.324</ele>
        <time>2015-08-15T16:01:08Z</time>
      </trkpt>
      <trkpt lat="45.76872" lon="4.816">
        <ele>163.816</ele>
        <time>2015-08-15T16:01:17Z</time>
      </trkpt>
      <trkpt lat="45.7687" lon="4.81605">
        <ele>164.292</ele>
        <time>2015-08-15T16:01:19Z</time>
      </trkpt>
      <trkpt lat="45.76868" lon="4.81616">
        <ele>165.311</ele>
        <time>2015-08-15T16:01:22Z</time>
      </trkpt>
      <trkpt lat="45.76874" lon="4.8164">
        <ele>167.85</ele>
        <time>2015-08-15T16:01:30Z</time>
      </trkpt>
      <trkpt lat="45.76881" lon="4.81643">
        <ele>169.057</ele>
        <time>2015-08-15T16:01:33Z</time>
      </trkpt>
      <trkpt lat="45.76888" lon="4.81638">
        <ele>169.555</ele>
        <time>2015-08-15T16:01:37Z</time>
      </trkpt>
      <trkpt lat="45.76914" lon="4.8159">
        <ele>174.218</ele>
        <time>2015-08-15T16:01:58Z</time>
      </trkpt>
      <trkpt lat="45.76929" lon="4.81559">
        <ele>176.039</ele>
        <time>2015-08-15T16:02:10Z</time>
      </trkpt>
      <trkpt lat="45.76935" lon="4.81563">
        <ele>176.767</ele>
        <time>2015-08-15T16:02:17Z</time>
      </trkpt>
      <trkpt lat="45.76921" lon="4.81599">
        <ele>179.235</ele>
        <time>2015-08-15T16:02:34Z</time>
      </trkpt>
      <trkpt lat="45.769" lon="4.81638">
        <ele>181.137</ele>
        <time>2015-08-15T16:02:55Z</time>
      </trkpt>
      <trkpt lat="45.76897" lon="4.81641">
        <ele>181.449</ele>
        <time>2015-08-15T16:02:57Z</time>
      </trkpt>
      <trkpt lat="45.76889" lon="4.81657">
        <ele>182.241</ele>
        <time>2015-08-15T16:03:05Z</time>
      </trkpt>
      <trkpt lat="45.76876" lon="4.81701">
        <ele>183.9</ele>
        <time>2015-08-15T16:03:23Z</time>
      </trkpt>
      <trkpt lat="45.76874" lon="4.8172">
        <ele>184.307</ele>
        <time>2015-08-15T16:03:30Z</time>
      </trkpt>
      <trkpt lat="45.76884" lon="4.81719">
        <ele>185.207</ele>
        <time>2015-08-15T16:03:38Z</time>
      </trkpt>
      <trkpt lat="45.76901" lon="4.81675">
        <ele>188.574</ele>
        <time>2015-08-15T16:03:58Z</time>
      </trkpt>
      <trkpt lat="45.76922" lon="4.81643">
        <ele>189.995</ele>
        <time>2015-08-15T16:04:16Z</time>
      </trkpt>
      <trkpt lat="45.76939" lon="4.81618">
        <ele>192.221</ele>
        <time>2015-08-15T16:04:32Z</time>
      </trkpt>
      <trkpt lat="45.76952" lon="4.81605">
        <ele>192.499</ele>
        <time>2015-08-15T16:04:40Z</time>
      </trkpt>
      <trkpt lat="45.76977" lon="4.81582">
        <ele>195.035</ele>
        <time>2015-08-15T16:04:57Z</time>
      </trkpt>
      <trkpt lat="45.76985" lon="4.81574">
        <ele>195.825</ele>
        <time>2015-08-15T16:05:03Z</time>
      </trkpt>
      <trkpt lat="45.76989" lon="4.81568">
        <ele>196.075</ele>
        <time>2015-08-15T16:05:06Z</time>
      </trkpt>
      <trkpt lat="45.76996" lon="4.81567">
        <ele>197.294</ele>
        <time>2015-08-15T16:05:11Z</time>
      </trkpt>
      <trkpt lat="45.77008" lon="4.81586">
        <ele>198.016</ele>
        <time>2015-08-15T16:05:21Z</time>
      </trkpt>
      <trkpt lat="45.77013" lon="4.816">
        <ele>199.635</ele>
        <time>2015-08-15T16:05:27Z</time>
      </trkpt>
      <trkpt lat="45.7701" lon="4.8161">
        <ele>199.883</ele>
        <time>2015-08-15T16:05:31Z</time>
      </trkpt>
      <trkpt lat="45.77001" lon="4.81618">
        <ele>200.186</ele>
        <time>2015-08-15T16:05:37Z</time>
      </trkpt>
      <trkpt lat="45.76989" lon="4.81633">
        <ele>201.694</ele>
        <time>2015-08-15T16:05:47Z</time>
      </trkpt>
      <trkpt lat="45.76964" lon="4.81655">
        <ele>204.393</ele>
        <time>2015-08-15T16:06:02Z</time>
      </trkpt>
      <trkpt lat="45.76936" lon="4.81679">
        <ele>207.499</ele>
        <time>2015-08-15T16:06:20Z</time>
      </trkpt>
      <trkpt lat="45.76926" lon="4.817">
        <ele>208.615</ele>
        <time>2015-08-15T16:06:32Z</time>
      </trkpt>
      <trkpt lat="45.76914" lon="4.81747">
        <ele>209.232</ele>
        <time>2015-08-15T16:06:49Z</time>
      </trkpt>
      <trkpt lat="45.76908" lon="4.81797">
        <ele>209.022</ele>
        <time>2015-08-15T16:07:04Z</time>
      </trkpt>
      <trkpt lat="45.76901" lon="4.8185">
        <ele>208.819</ele>
        <time>2015-08-15T16:07:18Z</time>
      </trkpt>
      <trkpt lat="45.76893" lon="4.81925">
        <ele>208.736</ele>
        <time>2015-08-15T16:07:34Z</time>
      </trkpt>
      <trkpt lat="45.76897" lon="4.81967">
        <ele>208.765</ele>
        <time>2015-08-15T16:07:42Z</time>
      </trkpt>
      <trkpt lat="45.76911" lon="4.82081">
        <ele>210.917</ele>
        <time>2015-08-15T16:07:59Z</time>
      </trkpt>
      <trkpt lat="45.76932" lon="4.82234">
        <ele>210.547</ele>
        <time>2015-08-15T16:08:17Z</time>
      </trkpt>
      <trkpt lat="45.76948" lon="4.82349">
        <ele>208.373</ele>
        <time>2015-08-15T16:08:31Z</time>
      </trkpt>
      <trkpt lat="45.76957" lon="4.82435">
        <ele>205.096</ele>
        <time>2015-08-15T16:08:40Z</time>
      </trkpt>
      <trkpt lat="45.76981" lon="4.82457">
        <ele>205.187</ele>
        <time>2015-08-15T16:08:46Z</time>
      </trkpt>
      <trkpt lat="45.76984" lon="4.82472">
        <ele>204.678</ele>
        <time>2015-08-15T16:08:49Z</time>
      </trkpt>
      <trkpt lat="45.76989" lon="4.8254">
        <ele>206.745</ele>
        <time>2015-08-15T16:09:05Z</time>
      </trkpt>
      <trkpt lat="45.7699" lon="4.8254">
        <ele>207.904</ele>
        <time>2015-08-15T16:09:08Z</time>
      </trkpt>
      <trkpt lat="45.7699" lon="4.82538">
        <ele>209.007</ele>
        <time>2015-08-15T16:09:26Z</time>
      </trkpt>
    </trkseg>
  </trk>
</gpx>